UA984 / N216UA 7700 Squawk Report (18th of June, 2019)

Aircraft B772 Reg No. N216UA Age 19 years old
Model 777 Jet engines 2 First flight 07-07-00
Registered 24-07-00 Rollout N/A Delivered 21-07-00
Construction No. 30549 Line No. 0291 Series 222(ER)
ADSHEX A1D18F Airline name United Airlines Owner N/A
Airfield based Chicago O`Hare~IL~N First tracked 2017-07-13 18:11:00

Flight history for N216UA

Route Flight No Date Playback
Charles De Gaulle (CDG) - Washington Dulles International (IAD) UA914 2019-07-18 22:05:00
San Francisco Intl (SFO) - Charles De Gaulle (CDG) UA990 2019-07-18 14:08:00
Capital Intl (PEK) - San Francisco Intl (SFO) UA889 2019-07-17 22:30:00
San Francisco Intl (SFO) - Capital Intl (PEK) UA888 2019-07-17 12:03:00
Washington Dulles International (IAD) - San Francisco Intl (SFO) UA340 2019-07-16 03:15:00
Brussels Airport (BRU) - Washington Dulles International (IAD) UA951 2019-07-15 17:48:00
Washington Dulles International (IAD) - Brussels Airport (BRU) UA950 2019-07-15 04:51:00
Brussels Airport (BRU) - Washington Dulles International (IAD) UA951 2019-07-14 21:58:00
Washington Dulles International (IAD) - Brussels Airport (BRU) UA950 2019-07-14 04:53:00
Fiumicino (FCO) - Washington Dulles International (IAD) UA43 2019-07-13 22:00:00
Newark Liberty Intl (EWR) - Fiumicino (FCO) UA40 2019-07-13 05:34:00
Fiumicino (FCO) - Newark Liberty Intl (EWR) UA41 2019-07-12 21:27:00
Washington Dulles International (IAD) - Fiumicino (FCO) UA42 2019-07-12 06:56:00
Fiumicino (FCO) - Washington Dulles International (IAD) UA43 2019-07-11 17:32:00
Newark Liberty Intl (EWR) - Fiumicino (FCO) UA40 2019-07-11 05:26:00
Fiumicino (FCO) - Newark Liberty Intl (EWR) UA41 2019-07-10 21:37:00
Washington Dulles International (IAD) - Fiumicino (FCO) UA42 2019-07-10 05:47:00
Frankfurt Main (FRA) - Washington Dulles International (IAD) UA988 2019-07-09 21:55:00
Washington Dulles International (IAD) - Frankfurt Main (FRA) UA989 2019-07-09 10:50:00
San Francisco Intl (SFO) - Washington Dulles International (IAD) UA291 2019-07-08 19:13:00
Time Lat Lon Altitude Heading Speed Vertical Rate
2019-06-18 13:04:17 GMT 56.924637 -12.709144 34,000 296 471 0
2019-06-18 13:04:14 GMT 56.921860 -12.698393 34,000 296 471 0
2019-06-18 13:04:04 GMT 56.912670 -12.663161 34,000 296 472 0
2019-06-18 13:03:40 GMT 56.890095 -12.577042 34,000 296 472 0
2019-06-18 13:03:33 GMT 56.883591 -12.552309 34,000 296 472 0
2019-06-18 13:03:23 GMT 56.873985 -12.515643 34,000 296 472 0
2019-06-18 13:03:12 GMT 56.864136 -12.478323 34,000 296 472 0
2019-06-18 13:03:02 GMT 56.854202 -12.440599 34,000 296 474 0
2019-06-18 13:02:52 GMT 56.845093 -12.406139 34,000 296 474 0
2019-06-18 13:02:42 GMT 56.835114 -12.368390 34,000 296 474 0
2019-06-18 13:02:31 GMT 56.825043 -12.330265 34,000 296 475 0
2019-06-18 13:02:01 GMT 56.796570 -12.223063 34,000 296 475 0
2019-06-18 13:01:53 GMT 56.788879 -12.194309 34,000 296 475 0
2019-06-18 13:01:48 GMT 56.783489 -12.174181 34,000 296 475 0
2019-06-18 13:01:09 GMT 56.746105 -12.034636 34,000 297 476 0
2019-06-18 12:59:56 GMT 56.675079 -11.772108 34,000 297 476 0
2019-06-18 12:59:42 GMT 56.662266 -11.724981 34,000 297 476 0
2019-06-18 12:59:34 GMT 56.654213 -11.695301 34,000 297 475 0
2019-06-18 12:59:23 GMT 56.643402 -11.655636 34,000 297 475 0
2019-06-18 12:59:14 GMT 56.634289 -11.622118 34,000 297 475 0
2019-06-18 12:59:03 GMT 56.623859 -11.584020 34,000 297 474 0
2019-06-18 12:58:53 GMT 56.614655 -11.550579 34,000 297 474 0
2019-06-18 12:58:43 GMT 56.604588 -11.513938 34,000 297 474 0
2019-06-18 12:58:33 GMT 56.594421 -11.477022 34,000 297 474 0
2019-06-18 12:58:22 GMT 56.584061 -11.439428 34,000 297 474 0
2019-06-18 12:58:01 GMT 56.562424 -11.361112 34,000 297 473 0
2019-06-18 12:57:53 GMT 56.554779 -11.333479 34,000 297 473 0
2019-06-18 12:57:46 GMT 56.548279 -11.310175 34,000 297 473 0
2019-06-18 12:57:35 GMT 56.537693 -11.271973 34,000 297 473 0
2019-06-18 12:57:31 GMT 56.533356 -11.256409 34,000 297 473 0
2019-06-18 12:57:24 GMT 56.526566 -11.232061 34,000 297 474 0
2019-06-18 12:57:21 GMT 56.523636 -11.221418 34,000 297 473 0
2019-06-18 12:57:05 GMT 56.506760 -11.160694 34,000 297 473 0
2019-06-18 12:56:52 GMT 56.495331 -11.119795 34,000 297 474 0
2019-06-18 12:56:34 GMT 56.477509 -11.056408 34,000 297 474 0
2019-06-18 12:56:29 GMT 56.472748 -11.039512 34,000 297 474 0
2019-06-18 12:56:19 GMT 56.462559 -11.003237 34,000 297 474 0
2019-06-18 12:56:08 GMT 56.451942 -10.965557 34,000 297 474 0
2019-06-18 12:55:57 GMT 56.441254 -10.927485 34,000 297 474 0
2019-06-18 12:55:47 GMT 56.431507 -10.892944 34,000 298 474 0
2019-06-18 12:55:37 GMT 56.421661 -10.858071 34,000 298 474 0
2019-06-18 12:55:27 GMT 56.411407 -10.821783 34,000 298 475 64
2019-06-18 12:55:16 GMT 56.400513 -10.783414 34,000 298 475 0
2019-06-18 12:55:06 GMT 56.389889 -10.746088 34,000 298 475 0
2019-06-18 12:54:55 GMT 56.379684 -10.710172 34,000 298 476 0
2019-06-18 12:54:45 GMT 56.369453 -10.674334 34,000 298 476 0
2019-06-18 12:54:35 GMT 56.359119 -10.638027 34,000 298 476 0
2019-06-18 12:54:25 GMT 56.348877 -10.602064 34,000 298 476 0
2019-06-18 12:54:14 GMT 56.338394 -10.565518 34,000 298 477 0
2019-06-18 12:54:04 GMT 56.328003 -10.529314 34,000 298 477 0
2019-06-18 12:53:54 GMT 56.317547 -10.492716 34,000 298 477 0
2019-06-18 12:53:44 GMT 56.307350 -10.457182 34,000 298 477 0
2019-06-18 12:53:33 GMT 56.297012 -10.421281 34,000 298 477 0
2019-06-18 12:53:23 GMT 56.286392 -10.384327 34,000 298 478 0
2019-06-18 12:53:13 GMT 56.275883 -10.348091 34,000 298 478 0
2019-06-18 12:53:02 GMT 56.264896 -10.310154 34,000 298 478 0
2019-06-18 12:52:52 GMT 56.254143 -10.273247 34,000 298 478 0
2019-06-18 12:52:40 GMT 56.241573 -10.229988 34,000 298 478 0
2019-06-18 12:52:30 GMT 56.232170 -10.197630 34,000 298 478 0
2019-06-18 12:52:21 GMT 56.223373 -10.167418 34,000 298 479 0
2019-06-18 12:52:12 GMT 56.213974 -10.135137 34,000 298 479 0
2019-06-18 12:52:09 GMT 56.210896 -10.124588 34,000 298 479 0
2019-06-18 12:52:03 GMT 56.199909 -10.086908 34,000 298 480 0
2019-06-18 12:51:59 GMT 56.199909 -10.086908 34,000 298 480 0
2019-06-18 12:51:52 GMT 56.193420 -10.064808 34,000 298 479 0
2019-06-18 12:51:49 GMT 56.189621 -10.051741 34,000 298 480 0
2019-06-18 12:51:40 GMT 56.180923 -10.022195 34,000 298 481 0
2019-06-18 12:51:32 GMT 56.172165 -9.992237 34,000 298 481 0
2019-06-18 12:51:27 GMT 56.166870 -9.974337 34,000 298 480 0
2019-06-18 12:51:22 GMT 56.162247 -9.958524 34,000 298 480 0
2019-06-18 12:51:19 GMT 56.159550 -9.949408 34,000 298 480 0
2019-06-18 12:51:16 GMT 56.155918 -9.937048 34,000 298 480 0
2019-06-18 12:51:12 GMT 56.148926 -9.913497 34,000 298 481 0
2019-06-18 12:51:05 GMT 56.144257 -9.897683 34,000 298 481 0
2019-06-18 12:50:59 GMT 56.138031 -9.876543 34,000 298 481 0
2019-06-18 12:50:54 GMT 56.132950 -9.859314 34,000 298 481 0
2019-06-18 12:50:51 GMT 56.129745 -9.848411 34,000 298 481 0
2019-06-18 12:50:48 GMT 56.127426 -9.840746 34,000 298 481 0
2019-06-18 12:50:45 GMT 56.123520 -9.827354 34,000 298 481 0
2019-06-18 12:50:38 GMT 56.116470 -9.803384 34,000 298 482 0
2019-06-18 12:50:34 GMT 56.111755 -9.787570 34,000 298 482 0
2019-06-18 12:50:30 GMT 56.108139 -9.775252 34,000 298 482 0
2019-06-18 12:50:27 GMT 56.105408 -9.766073 34,000 298 482 0
2019-06-18 12:50:23 GMT 56.100521 -9.749594 34,000 299 482 0
2019-06-18 12:50:20 GMT 56.097679 -9.740067 34,000 299 482 0
2019-06-18 12:50:17 GMT 56.095047 -9.731307 34,000 299 482 0
2019-06-18 12:50:12 GMT 56.089535 -9.712687 34,000 299 482 0
2019-06-18 12:50:09 GMT 56.086807 -9.703508 34,000 299 482 0
2019-06-18 12:50:06 GMT 56.083557 -9.692605 34,000 299 482 0
2019-06-18 12:50:02 GMT 56.078659 -9.676125 34,000 299 482 0
2019-06-18 12:49:56 GMT 56.072433 -9.655401 34,000 299 482 0
2019-06-18 12:49:52 GMT 56.067932 -9.640245 34,000 299 483 0
2019-06-18 12:49:48 GMT 56.064789 -9.629766 34,000 299 483 0
2019-06-18 12:49:45 GMT 56.061745 -9.619560 34,000 299 483 0
2019-06-18 12:49:41 GMT 56.056366 -9.601635 34,000 299 484 0
2019-06-18 12:49:38 GMT 56.054260 -9.594560 34,000 299 484 0
2019-06-18 12:49:33 GMT 56.048943 -9.576645 34,000 299 484 0
2019-06-18 12:49:28 GMT 56.043686 -9.559104 34,000 299 484 0
2019-06-18 12:49:25 GMT 56.039909 -9.546432 34,000 298 483 0
2019-06-18 12:49:18 GMT 56.032883 -9.522816 34,000 298 483 0
2019-06-18 12:49:14 GMT 56.029221 -9.510581 34,000 299 483 0
2019-06-18 12:49:08 GMT 56.021942 -9.486351 34,000 299 483 0
2019-06-18 12:49:04 GMT 56.018265 -9.474077 34,000 299 483 0
2019-06-18 12:48:57 GMT 56.010818 -9.449158 34,000 299 483 0
2019-06-18 12:48:54 GMT 56.007462 -9.437943 34,000 299 483 0
2019-06-18 12:48:47 GMT 56.000198 -9.413785 34,000 299 483 0
2019-06-18 12:48:43 GMT 55.996307 -9.400801 34,000 299 482 0
2019-06-18 12:48:36 GMT 55.988525 -9.374917 34,000 299 482 0
2019-06-18 12:48:33 GMT 55.985870 -9.366178 34,000 299 482 0
2019-06-18 12:48:27 GMT 55.978729 -9.342457 34,000 299 482 0
2019-06-18 12:48:23 GMT 55.971619 -9.319067 34,000 299 481 0
2019-06-18 12:48:16 GMT 55.966682 -9.302673 34,000 299 481 0
2019-06-18 12:48:13 GMT 55.955658 -9.266385 34,000 299 482 0
2019-06-18 12:48:05 GMT 55.955658 -9.266385 34,000 299 481 0
2019-06-18 12:48:01 GMT 55.948994 -9.244394 34,000 299 481 0
2019-06-18 12:47:58 GMT 55.944992 -9.231179 34,000 299 482 0
2019-06-18 12:47:55 GMT 55.944992 -9.231179 34,000 299 481 0
2019-06-18 12:47:51 GMT 55.941776 -9.220705 34,000 299 481 0
2019-06-18 12:47:45 GMT 55.934097 -9.195307 34,000 299 481 0
2019-06-18 12:47:41 GMT 55.931210 -9.185858 34,000 299 481 0
2019-06-18 12:47:34 GMT 55.922974 -9.158686 34,000 299 481 0
2019-06-18 12:47:31 GMT 55.920551 -9.150753 34,000 299 481 0
2019-06-18 12:47:24 GMT 55.911575 -9.121149 34,000 299 481 0
2019-06-18 12:47:21 GMT 55.909149 -9.113159 34,000 299 481 0
2019-06-18 12:47:13 GMT 55.901505 -9.088107 34,000 299 481 0
2019-06-18 12:47:10 GMT 55.898342 -9.077711 34,000 299 481 0
2019-06-18 12:47:04 GMT 55.887173 -9.041233 34,000 299 481 0
2019-06-18 12:47:00 GMT 55.887173 -9.041233 34,000 299 481 0
2019-06-18 12:46:53 GMT 55.879852 -9.017362 34,000 299 480 0
2019-06-18 12:46:50 GMT 55.876373 -9.005876 34,000 299 480 0
2019-06-18 12:46:42 GMT 55.867760 -8.977890 34,000 299 480 0
2019-06-18 12:46:33 GMT 55.857788 -8.945368 34,000 299 481 0
2019-06-18 12:46:29 GMT 55.854675 -8.935297 34,000 299 481 0
2019-06-18 12:46:22 GMT 55.846905 -8.910084 34,000 299 480 0
2019-06-18 12:46:19 GMT 55.843597 -8.899355 34,000 299 480 0
2019-06-18 12:46:09 GMT 55.832520 -8.863470 34,000 299 480 0
2019-06-18 12:46:02 GMT 55.824646 -8.838002 34,000 299 480 0
2019-06-18 12:45:58 GMT 55.821205 -8.826914 34,000 299 480 0
2019-06-18 12:45:51 GMT 55.813660 -8.802462 34,000 299 480 0
2019-06-18 12:45:48 GMT 55.811108 -8.794127 34,000 299 480 0
2019-06-18 12:45:38 GMT 55.799465 -8.756533 34,000 299 480 0
2019-06-18 12:45:31 GMT 55.792019 -8.732414 34,000 299 480 0
2019-06-18 12:45:28 GMT 55.789368 -8.723745 34,000 299 480 0
2019-06-18 12:45:20 GMT 55.781158 -8.697177 34,000 299 480 0
2019-06-18 12:45:17 GMT 55.777405 -8.685192 34,000 299 480 0
2019-06-18 12:45:14 GMT 55.773468 -8.672458 34,000 299 479 0
2019-06-18 12:45:10 GMT 55.769943 -8.661055 34,000 299 479 0
2019-06-18 12:45:07 GMT 55.767059 -8.651817 34,000 299 479 0
2019-06-18 12:45:02 GMT 55.759323 -8.627014 34,000 299 479 0
2019-06-18 12:44:58 GMT 55.756439 -8.617776 34,000 299 479 0
2019-06-18 12:44:54 GMT 55.752502 -8.605042 34,000 299 479 0
2019-06-18 12:44:47 GMT 55.745224 -8.581737 34,000 299 479 0
2019-06-18 12:44:44 GMT 55.741882 -8.571084 34,000 300 479 0
2019-06-18 12:44:36 GMT 55.733734 -8.545033 34,000 300 479 0
2019-06-18 12:44:28 GMT 55.724285 -8.514919 34,000 300 479 0
2019-06-18 12:44:23 GMT 55.719910 -8.500843 34,000 300 479 0
2019-06-18 12:44:17 GMT 55.713020 -8.478870 34,000 299 479 0
2019-06-18 12:44:13 GMT 55.709152 -8.466547 34,000 299 479 0
2019-06-18 12:44:08 GMT 55.703709 -8.449087 34,000 299 479 0
2019-06-18 12:44:05 GMT 55.700588 -8.439131 34,000 299 479 0
2019-06-18 12:44:02 GMT 55.696976 -8.427429 34,000 300 480 0
2019-06-18 12:43:58 GMT 55.692677 -8.413725 34,000 300 480 0
2019-06-18 12:43:55 GMT 55.689423 -8.403459 34,000 300 480 0
2019-06-18 12:43:47 GMT 55.680759 -8.375702 34,000 300 480 0
2019-06-18 12:43:44 GMT 55.677406 -8.365059 34,000 300 480 0
2019-06-18 12:43:41 GMT 55.675266 -8.358192 34,000 300 479 0
2019-06-18 12:43:38 GMT 55.667862 -8.334628 34,000 300 479 0
2019-06-18 12:43:35 GMT 55.663330 -8.320229 34,000 300 479 0
2019-06-18 12:43:32 GMT 55.663330 -8.320229 34,000 300 479 0
2019-06-18 12:43:26 GMT 55.658661 -8.305498 34,000 300 479 0
2019-06-18 12:43:23 GMT 55.655136 -8.294262 34,000 300 479 0
2019-06-18 12:43:20 GMT 55.652500 -8.286095 34,000 300 479 0
2019-06-18 12:43:17 GMT 55.648865 -8.274453 34,000 300 479 64
2019-06-18 12:43:13 GMT 55.642914 -8.255711 34,000 300 479 0
2019-06-18 12:43:09 GMT 55.639885 -8.246098 34,000 300 479 0
2019-06-18 12:43:06 GMT 55.637375 -8.238287 34,000 300 479 0
2019-06-18 12:43:02 GMT 55.628853 -8.211336 34,000 300 479 0
2019-06-18 12:42:59 GMT 55.628853 -8.211336 34,000 300 479 0
2019-06-18 12:42:56 GMT 55.625702 -8.201460 34,000 300 479 0
2019-06-18 12:42:53 GMT 55.623001 -8.192888 34,000 300 479 0
2019-06-18 12:42:50 GMT 55.615028 -8.167734 34,000 300 479 0
2019-06-18 12:42:44 GMT 55.612106 -8.158514 34,000 300 479 0
2019-06-18 12:42:40 GMT 55.608948 -8.148610 34,000 300 479 0
2019-06-18 12:42:37 GMT 55.606064 -8.139454 34,000 300 479 0
2019-06-18 12:42:34 GMT 55.601303 -8.124390 34,000 300 479 -64
2019-06-18 12:42:31 GMT 55.599152 -8.117648 34,000 300 479 -64
2019-06-18 12:42:28 GMT 55.596127 -8.108082 34,000 300 479 0
2019-06-18 12:42:25 GMT 55.592422 -8.096508 34,000 300 479 0
2019-06-18 12:42:22 GMT 55.588120 -8.082848 34,000 300 479 0
2019-06-18 12:42:16 GMT 55.581184 -8.061132 34,000 300 479 0
2019-06-18 12:42:13 GMT 55.579147 -8.054643 34,000 300 479 0
2019-06-18 12:42:10 GMT 55.576763 -8.047142 34,000 300 479 0
2019-06-18 12:42:07 GMT 55.573410 -8.036585 34,000 300 477 0
2019-06-18 12:42:04 GMT 55.566605 -8.015192 34,000 300 478 64
2019-06-18 12:41:57 GMT 55.562164 -8.001293 34,000 300 478 0
2019-06-18 12:41:54 GMT 55.558884 -7.991095 34,000 300 479 0
2019-06-18 12:41:51 GMT 55.551064 -7.966633 34,000 300 479 0
2019-06-18 12:41:47 GMT 55.551064 -7.966633 34,000 300 479 0
2019-06-18 12:41:44 GMT 55.547699 -7.956099 34,000 300 479 -64
2019-06-18 12:41:41 GMT 55.543896 -7.944231 34,000 300 479 0
2019-06-18 12:41:37 GMT 55.540310 -7.933073 34,000 300 479 0
2019-06-18 12:41:33 GMT 55.534958 -7.916422 34,000 300 479 0
2019-06-18 12:41:30 GMT 55.532909 -7.909985 34,000 300 479 0
2019-06-18 12:41:27 GMT 55.529510 -7.899513 34,000 300 479 0
2019-06-18 12:41:24 GMT 55.525406 -7.886602 34,000 300 479 0
2019-06-18 12:41:20 GMT 55.522575 -7.877798 34,000 300 479 0
2019-06-18 12:41:13 GMT 55.514057 -7.851362 34,000 300 478 0
2019-06-18 12:41:09 GMT 55.509399 -7.836857 34,000 300 478 0
2019-06-18 12:41:06 GMT 55.506233 -7.827072 34,000 300 478 0
2019-06-18 12:41:03 GMT 55.503387 -7.818271 34,000 300 478 0
2019-06-18 12:41:00 GMT 55.500000 -7.807784 34,000 300 478 0
2019-06-18 12:40:57 GMT 55.496738 -7.797632 34,000 300 477 0
2019-06-18 12:40:53 GMT 55.492268 -7.783813 34,000 300 477 0
2019-06-18 12:40:50 GMT 55.488785 -7.772994 34,000 300 477 0
2019-06-18 12:40:43 GMT 55.480957 -7.748709 34,000 300 477 0
2019-06-18 12:40:40 GMT 55.477478 -7.737954 34,000 300 477 0
2019-06-18 12:40:37 GMT 55.474998 -7.730169 34,000 300 477 0
2019-06-18 12:40:32 GMT 55.468002 -7.708657 34,000 300 476 0
2019-06-18 12:40:28 GMT 55.465393 -7.700584 34,000 300 476 0
2019-06-18 12:40:21 GMT 55.456604 -7.673368 34,000 300 476 0
2019-06-18 12:40:18 GMT 55.454098 -7.665625 34,000 300 475 0
2019-06-18 12:40:13 GMT 55.447861 -7.646484 34,000 300 475 0
2019-06-18 12:40:09 GMT 55.444061 -7.634832 34,000 300 475 0
2019-06-18 12:40:00 GMT 55.434032 -7.604037 34,000 300 474 0
2019-06-18 12:39:57 GMT 55.431423 -7.595964 34,000 300 474 0
2019-06-18 12:39:51 GMT 55.421677 -7.565864 34,000 300 474 0
2019-06-18 12:39:48 GMT 55.418976 -7.557544 34,000 300 474 0
2019-06-18 12:39:40 GMT 55.412888 -7.538802 34,000 300 474 0
2019-06-18 12:39:37 GMT 55.409824 -7.529463 34,000 300 474 0
2019-06-18 12:39:32 GMT 55.402470 -7.506825 34,000 300 473 64
2019-06-18 12:39:29 GMT 55.400284 -7.500083 34,000 300 473 0
2019-06-18 12:39:19 GMT 55.390274 -7.469411 34,000 300 473 64
2019-06-18 12:39:16 GMT 55.387016 -7.459467 34,000 300 473 64
2019-06-18 12:39:12 GMT 55.381348 -7.442106 34,000 300 473 0
2019-06-18 12:39:09 GMT 55.378960 -7.434831 34,000 300 473 -64
2019-06-18 12:39:06 GMT 55.375717 -7.424819 34,000 300 473 -64
2019-06-18 12:38:58 GMT 55.366207 -7.395796 34,000 300 474 0
2019-06-18 12:38:55 GMT 55.364346 -7.390137 34,000 300 474 0
2019-06-18 12:38:50 GMT 55.358524 -7.372575 34,000 300 474 0
2019-06-18 12:38:47 GMT 55.355713 -7.363910 34,000 300 474 0
2019-06-18 12:38:44 GMT 55.351959 -7.352600 34,000 300 474 0
2019-06-18 12:38:40 GMT 55.347610 -7.339271 34,000 301 473 0
2019-06-18 12:38:37 GMT 55.344864 -7.331031 34,000 301 473 0
2019-06-18 12:38:34 GMT 55.340927 -7.319059 34,000 301 473 0
2019-06-18 12:38:28 GMT 55.333481 -7.296503 34,000 301 473 0
2019-06-18 12:38:25 GMT 55.331314 -7.289833 34,000 301 473 0
2019-06-18 12:38:19 GMT 55.325180 -7.271253 34,000 301 473 0
2019-06-18 12:38:16 GMT 55.322021 -7.261640 34,000 301 473 0
2019-06-18 12:38:13 GMT 55.317654 -7.248396 34,000 301 473 0
2019-06-18 12:38:08 GMT 55.313049 -7.234497 34,000 301 472 0
2019-06-18 12:38:05 GMT 55.309479 -7.223511 34,000 301 472 64
2019-06-18 12:38:02 GMT 55.303436 -7.205335 34,000 301 472 0
2019-06-18 12:37:59 GMT 55.303436 -7.205335 34,000 300 472 0
2019-06-18 12:37:56 GMT 55.296249 -7.183524 34,000 300 472 0
2019-06-18 12:37:53 GMT 55.296249 -7.183524 34,000 300 472 0
2019-06-18 12:37:48 GMT 55.290699 -7.166665 34,000 300 471 0
2019-06-18 12:37:43 GMT 55.284302 -7.147172 34,000 301 471 0
2019-06-18 12:37:38 GMT 55.279945 -7.133956 34,000 301 471 0
2019-06-18 12:37:35 GMT 55.275707 -7.121138 34,000 301 471 0
2019-06-18 12:37:32 GMT 55.268372 -7.099107 34,000 301 470 -64
2019-06-18 12:37:28 GMT 55.268372 -7.099107 34,000 301 470 0
2019-06-18 12:37:23 GMT 55.263062 -7.083031 34,000 301 469 -64
2019-06-18 12:37:18 GMT 55.258160 -7.068204 34,000 301 469 -64
2019-06-18 12:37:15 GMT 55.254868 -7.058393 34,000 301 468 -64
2019-06-18 12:37:12 GMT 55.251175 -7.047313 34,000 301 468 0
2019-06-18 12:37:09 GMT 55.248367 -7.038763 34,000 301 468 -64
2019-06-18 12:37:06 GMT 55.245621 -7.030604 34,000 301 468 -64
2019-06-18 12:37:03 GMT 55.241585 -7.018516 34,000 301 468 -64
2019-06-18 12:37:00 GMT 55.238884 -7.010359 34,000 301 467 -64
2019-06-18 12:36:56 GMT 55.234085 -6.995948 34,000 301 467 0
2019-06-18 12:36:53 GMT 55.229713 -6.982977 34,000 301 467 0
2019-06-18 12:36:50 GMT 55.228085 -6.978066 34,000 301 467 64
2019-06-18 12:36:47 GMT 55.221382 -6.957841 34,000 301 467 0
2019-06-18 12:36:44 GMT 55.221382 -6.957841 34,000 301 467 0
2019-06-18 12:36:41 GMT 55.217468 -6.946106 34,000 301 467 0
2019-06-18 12:36:38 GMT 55.214767 -6.937947 34,000 301 467 64
2019-06-18 12:36:34 GMT 55.209976 -6.923634 34,000 301 467 64
2019-06-18 12:36:31 GMT 55.206070 -6.911935 34,000 301 467 0
2019-06-18 12:36:27 GMT 55.203224 -6.903409 34,000 301 467 0
2019-06-18 12:36:24 GMT 55.199223 -6.891424 34,000 301 467 0
2019-06-18 12:36:20 GMT 55.194946 -6.878734 34,000 301 468 0
2019-06-18 12:36:16 GMT 55.191147 -6.867344 34,000 301 468 0
2019-06-18 12:36:13 GMT 55.188309 -6.858862 34,000 301 468 0
2019-06-18 12:36:10 GMT 55.183582 -6.844899 34,000 301 468 0
2019-06-18 12:36:06 GMT 55.180416 -6.835410 34,000 301 468 0
2019-06-18 12:36:03 GMT 55.176910 -6.825014 34,000 301 468 64
2019-06-18 12:35:59 GMT 55.171898 -6.810025 34,000 301 468 0
2019-06-18 12:35:56 GMT 55.168919 -6.801286 34,000 301 468 0
2019-06-18 12:35:53 GMT 55.165649 -6.791490 34,000 301 468 0
2019-06-18 12:35:49 GMT 55.161484 -6.779130 34,000 301 468 0
2019-06-18 12:35:46 GMT 55.157745 -6.768078 34,000 301 468 0
2019-06-18 12:35:43 GMT 55.154480 -6.758369 34,000 301 467 -64
2019-06-18 12:35:39 GMT 55.150223 -6.745686 34,000 301 467 -64
2019-06-18 12:35:36 GMT 55.147179 -6.736617 34,000 301 467 0
2019-06-18 12:35:33 GMT 55.143360 -6.725214 34,000 301 467 0
2019-06-18 12:35:29 GMT 55.139309 -6.713229 34,000 301 466 0
2019-06-18 12:35:26 GMT 55.135914 -6.703158 34,000 301 465 0
2019-06-18 12:35:23 GMT 55.132561 -6.693171 34,000 301 465 0
2019-06-18 12:35:19 GMT 55.128525 -6.681222 34,000 301 465 0
2019-06-18 12:35:16 GMT 55.121201 -6.659546 34,000 301 465 0
2019-06-18 12:35:13 GMT 55.121201 -6.659546 34,000 301 465 0
2019-06-18 12:35:08 GMT 55.116779 -6.646312 34,000 301 465 -64
2019-06-18 12:35:05 GMT 55.112541 -6.633745 34,000 301 465 -64
2019-06-18 12:35:02 GMT 55.109894 -6.626048 34,000 301 464 0
2019-06-18 12:34:58 GMT 55.105682 -6.613527 34,000 301 464 0
2019-06-18 12:34:55 GMT 55.102207 -6.603199 34,000 301 464 0
2019-06-18 12:34:52 GMT 55.098953 -6.593574 34,000 301 463 0
2019-06-18 12:34:47 GMT 55.093735 -6.578147 34,000 301 463 0
2019-06-18 12:34:44 GMT 55.090710 -6.569075 34,000 301 463 0
2019-06-18 12:34:41 GMT 55.087784 -6.560454 34,000 301 463 64
2019-06-18 12:34:37 GMT 55.082890 -6.545937 34,000 301 463 64
2019-06-18 12:34:34 GMT 55.079395 -6.535700 34,000 301 463 0
2019-06-18 12:34:31 GMT 55.076698 -6.527710 34,000 301 463 0
2019-06-18 12:34:27 GMT 55.067093 -6.499463 34,000 301 463 0
2019-06-18 12:34:23 GMT 55.067093 -6.499463 34,000 301 464 0
2019-06-18 12:34:19 GMT 55.063065 -6.487588 34,000 301 464 0
2019-06-18 12:34:16 GMT 55.058681 -6.474693 34,000 301 464 0
2019-06-18 12:34:13 GMT 55.053314 -6.458992 34,000 301 464 0
2019-06-18 12:34:10 GMT 55.053314 -6.458992 34,000 301 464 0
2019-06-18 12:34:06 GMT 55.048279 -6.444208 34,000 301 464 0
2019-06-18 12:34:02 GMT 55.044022 -6.431687 34,000 301 464 0
2019-06-18 12:33:59 GMT 55.041916 -6.425629 34,000 301 464 0
2019-06-18 12:33:56 GMT 55.037548 -6.412770 34,000 301 464 0
2019-06-18 12:33:53 GMT 55.031937 -6.396466 34,000 301 464 -64
2019-06-18 12:33:47 GMT 55.028549 -6.386530 34,000 301 464 0
2019-06-18 12:33:44 GMT 55.024246 -6.374009 34,000 301 465 0
2019-06-18 12:33:40 GMT 55.020508 -6.363081 34,000 301 465 0
2019-06-18 12:33:36 GMT 55.016228 -6.350597 34,000 301 465 0
2019-06-18 12:33:33 GMT 55.013123 -6.341616 34,000 301 465 0
2019-06-18 12:33:30 GMT 55.009617 -6.331371 34,000 301 465 0
2019-06-18 12:33:27 GMT 55.002686 -6.311161 34,000 301 465 0
2019-06-18 12:33:24 GMT 55.002686 -6.311161 34,000 301 465 0
2019-06-18 12:33:21 GMT 54.999298 -6.301225 34,000 301 465 0
2019-06-18 12:33:18 GMT 54.995789 -6.290921 34,000 301 465 0
2019-06-18 12:33:15 GMT 54.993603 -6.284513 34,000 301 464 0
2019-06-18 12:33:12 GMT 54.989319 -6.272028 34,000 301 464 0
2019-06-18 12:33:09 GMT 54.986023 -6.262449 34,000 301 464 0
2019-06-18 12:33:06 GMT 54.983734 -6.255664 34,000 301 464 0
2019-06-18 12:33:03 GMT 54.979431 -6.243223 34,000 301 464 0
2019-06-18 12:33:00 GMT 54.972980 -6.224337 34,000 301 464 0
2019-06-18 12:32:53 GMT 54.967766 -6.209273 34,000 301 465 0
2019-06-18 12:32:50 GMT 54.965378 -6.202267 34,000 301 465 0
2019-06-18 12:32:47 GMT 54.958874 -6.183388 34,000 301 465 0
2019-06-18 12:32:44 GMT 54.955475 -6.173401 34,000 301 465 0
2019-06-18 12:32:41 GMT 54.955475 -6.173401 34,000 301 465 0
2019-06-18 12:32:38 GMT 54.952496 -6.164828 34,000 301 465 0
2019-06-18 12:32:34 GMT 54.947845 -6.151374 34,000 301 465 0
2019-06-18 12:32:30 GMT 54.943233 -6.137945 34,000 302 465 0
2019-06-18 12:32:27 GMT 54.939556 -6.127375 34,000 302 465 0
2019-06-18 12:32:22 GMT 54.934711 -6.113392 34,000 302 464 -64
2019-06-18 12:32:19 GMT 54.931366 -6.103794 34,000 302 464 -64
2019-06-18 12:32:16 GMT 54.928162 -6.094504 34,000 302 465 0
2019-06-18 12:32:12 GMT 54.923172 -6.080206 34,000 302 465 0
2019-06-18 12:32:09 GMT 54.920048 -6.071195 34,000 302 465 0
2019-06-18 12:32:06 GMT 54.916718 -6.061626 34,000 302 465 0
2019-06-18 12:32:02 GMT 54.907993 -6.036405 34,000 302 465 0
2019-06-18 12:31:59 GMT 54.907993 -6.036405 34,000 302 465 0
2019-06-18 12:31:55 GMT 54.900917 -6.016013 34,000 302 465 0
2019-06-18 12:31:52 GMT 54.900917 -6.016013 34,000 302 465 0
2019-06-18 12:31:49 GMT 54.897888 -6.007441 34,000 302 465 0
2019-06-18 12:31:43 GMT 54.891232 -5.988215 34,000 302 465 64
2019-06-18 12:31:40 GMT 54.888161 -5.979309 34,000 302 465 0
2019-06-18 12:31:37 GMT 54.883621 -5.966222 34,000 302 465 0
2019-06-18 12:31:34 GMT 54.878944 -5.952842 34,000 302 465 0
2019-06-18 12:31:28 GMT 54.873871 -5.938110 34,000 302 466 0
2019-06-18 12:31:24 GMT 54.870422 -5.928206 34,000 302 466 0
2019-06-18 12:31:21 GMT 54.867096 -5.918642 34,000 302 466 0
2019-06-18 12:31:18 GMT 54.863861 -5.909313 34,000 302 466 0
2019-06-18 12:31:15 GMT 54.860416 -5.899409 34,000 302 466 0
2019-06-18 12:31:11 GMT 54.854877 -5.883428 34,000 302 466 0
2019-06-18 12:31:07 GMT 54.852081 -5.875438 34,000 302 466 0
2019-06-18 12:31:04 GMT 54.844494 -5.853715 34,000 302 467 0
2019-06-18 12:31:01 GMT 54.844494 -5.853715 34,000 302 467 0
2019-06-18 12:30:58 GMT 54.841377 -5.844810 34,000 302 466 0
2019-06-18 12:30:55 GMT 54.837933 -5.834905 34,000 302 466 0
2019-06-18 12:30:52 GMT 54.833588 -5.822431 34,000 302 467 0
2019-06-18 12:30:49 GMT 54.830017 -5.812252 34,000 302 467 0
2019-06-18 12:30:46 GMT 54.827316 -5.804610 34,000 302 467 0
2019-06-18 12:30:40 GMT 54.821640 -5.788260 34,000 302 466 -64
2019-06-18 12:30:37 GMT 54.818520 -5.779391 34,000 302 466 -64
2019-06-18 12:30:34 GMT 54.814499 -5.767903 34,000 302 466 0
2019-06-18 12:30:30 GMT 54.809464 -5.753524 34,000 302 466 0
2019-06-18 12:30:27 GMT 54.807220 -5.747142 34,000 302 466 0
2019-06-18 12:30:24 GMT 54.803558 -5.736640 34,000 302 466 0
2019-06-18 12:30:18 GMT 54.792824 -5.705983 34,000 302 466 0
2019-06-18 12:30:15 GMT 54.792824 -5.705983 34,000 302 466 0
2019-06-18 12:30:08 GMT 54.785339 -5.684698 34,000 302 467 0
2019-06-18 12:30:05 GMT 54.781403 -5.673550 34,000 302 467 0
2019-06-18 12:30:02 GMT 54.774807 -5.654713 34,000 302 467 0
2019-06-18 12:29:58 GMT 54.774807 -5.654713 34,000 302 467 0
2019-06-18 12:29:55 GMT 54.769779 -5.640398 34,000 302 467 0
2019-06-18 12:29:52 GMT 54.768105 -5.635653 34,000 302 467 0
2019-06-18 12:29:49 GMT 54.763596 -5.622900 34,000 302 467 0
2019-06-18 12:29:46 GMT 54.760887 -5.615262 34,000 302 467 0
2019-06-18 12:29:43 GMT 54.756638 -5.603189 34,000 302 468 0
2019-06-18 12:29:39 GMT 54.751923 -5.589860 34,000 302 467 0
2019-06-18 12:29:36 GMT 54.746082 -5.573314 34,000 302 467 0
2019-06-18 12:29:28 GMT 54.739799 -5.555503 34,000 302 467 0
2019-06-18 12:29:25 GMT 54.732582 -5.535112 34,000 302 467 0
2019-06-18 12:29:22 GMT 54.732582 -5.535112 34,000 302 467 0
2019-06-18 12:29:18 GMT 54.728302 -5.523053 34,000 302 467 0
2019-06-18 12:29:15 GMT 54.726059 -5.516672 34,000 302 467 0
2019-06-18 12:29:12 GMT 54.722763 -5.507462 34,000 302 467 0
2019-06-18 12:29:09 GMT 54.719971 -5.499546 34,000 302 468 0
2019-06-18 12:29:06 GMT 54.715450 -5.486839 34,000 302 467 0
2019-06-18 12:29:03 GMT 54.712967 -5.479835 34,000 302 467 0
2019-06-18 12:29:00 GMT 54.709122 -5.469027 34,000 302 468 0
2019-06-18 12:28:56 GMT 54.704865 -5.456893 34,000 302 468 0
2019-06-18 12:28:53 GMT 54.701340 -5.447038 34,000 302 468 0
2019-06-18 12:28:50 GMT 54.697861 -5.437182 34,000 302 468 0
2019-06-18 12:28:46 GMT 54.689800 -5.414595 34,000 302 468 0
2019-06-18 12:28:43 GMT 54.686310 -5.404774 34,000 302 468 0
2019-06-18 12:28:40 GMT 54.686310 -5.404774 34,000 302 468 -64
2019-06-18 12:28:36 GMT 54.678631 -5.383134 34,000 302 468 0
2019-06-18 12:28:30 GMT 54.674347 -5.371066 34,000 302 468 0
2019-06-18 12:28:27 GMT 54.671600 -5.363492 34,000 302 468 0
2019-06-18 12:28:24 GMT 54.667458 -5.351673 34,000 302 468 0
2019-06-18 12:28:21 GMT 54.664398 -5.343152 34,000 302 468 0
2019-06-18 12:28:18 GMT 54.660892 -5.333280 34,000 302 468 0
2019-06-18 12:28:15 GMT 54.653961 -5.313990 34,000 302 468 0
2019-06-18 12:28:11 GMT 54.651024 -5.305731 34,000 302 467 0
2019-06-18 12:28:08 GMT 54.645435 -5.290167 34,000 302 467 0
2019-06-18 12:28:04 GMT 54.641712 -5.279763 34,000 302 467 0
2019-06-18 12:28:01 GMT 54.641712 -5.279763 34,000 302 467 0
2019-06-18 12:27:54 GMT 54.634369 -5.259139 34,000 302 467 0
2019-06-18 12:27:51 GMT 54.630821 -5.249301 34,000 302 467 0
2019-06-18 12:27:48 GMT 54.627422 -5.239813 34,000 302 467 0
2019-06-18 12:27:44 GMT 54.621651 -5.223666 34,000 302 468 0
2019-06-18 12:27:41 GMT 54.619740 -5.218256 34,000 302 468 0
2019-06-18 12:27:38 GMT 54.615189 -5.205581 34,000 302 468 0
2019-06-18 12:27:34 GMT 54.610977 -5.193867 34,000 302 468 0
2019-06-18 12:27:31 GMT 54.607727 -5.184658 34,000 302 468 0
2019-06-18 12:27:25 GMT 54.601353 -5.166903 34,000 302 468 0
2019-06-18 12:27:21 GMT 54.593628 -5.145398 34,000 302 468 0
2019-06-18 12:27:18 GMT 54.588959 -5.132392 34,000 302 468 0
2019-06-18 12:27:15 GMT 54.588959 -5.132392 34,000 302 468 0
2019-06-18 12:27:12 GMT 54.585804 -5.123457 34,000 302 468 0
2019-06-18 12:27:08 GMT 54.582268 -5.113636 34,000 302 469 0
2019-06-18 12:27:05 GMT 54.576027 -5.096241 34,000 302 473 0
2019-06-18 12:26:59 GMT 54.572025 -5.085089 34,000 302 469 0
2019-06-18 12:26:56 GMT 54.568588 -5.075603 34,000 302 469 0
2019-06-18 12:26:52 GMT 54.563873 -5.062597 34,000 302 470 0
2019-06-18 12:26:47 GMT 54.558151 -5.046764 34,000 302 471 0
2019-06-18 12:26:44 GMT 54.551495 -5.028326 34,000 302 471 0
2019-06-18 12:26:37 GMT 54.547028 -5.015925 34,000 302 472 64
2019-06-18 12:26:34 GMT 54.539204 -4.994285 34,000 302 472 0
2019-06-18 12:26:30 GMT 54.539204 -4.994285 34,000 302 472 0
2019-06-18 12:26:27 GMT 54.535389 -4.983798 34,000 302 473 0
2019-06-18 12:26:24 GMT 54.530685 -4.970748 34,000 302 473 0
2019-06-18 12:26:20 GMT 54.527569 -4.962158 34,000 302 473 0
2019-06-18 12:26:17 GMT 54.523750 -4.951671 34,000 303 475 0
2019-06-18 12:26:14 GMT 54.520294 -4.942070 34,000 302 473 0
2019-06-18 12:26:11 GMT 54.516582 -4.931863 34,000 302 473 0
2019-06-18 12:26:08 GMT 54.513565 -4.923571 34,000 302 473 0
2019-06-18 12:26:05 GMT 54.510452 -4.915009 34,000 302 473 0
2019-06-18 12:26:02 GMT 54.505829 -4.902233 34,000 302 473 0
2019-06-18 12:25:59 GMT 54.503033 -4.894576 34,000 302 473 0
2019-06-18 12:25:56 GMT 54.499451 -4.884671 34,000 302 474 0
2019-06-18 12:25:53 GMT 54.495987 -4.875102 34,000 302 474 0
2019-06-18 12:25:50 GMT 54.491814 -4.863614 34,000 303 475 0
2019-06-18 12:25:47 GMT 54.488892 -4.855634 34,000 303 475 0
2019-06-18 12:25:41 GMT 54.482506 -4.838063 34,000 303 475 0
2019-06-18 12:25:38 GMT 54.477943 -4.825578 34,000 303 475 0
2019-06-18 12:25:35 GMT 54.475159 -4.817909 34,000 303 475 0
2019-06-18 12:25:32 GMT 54.471333 -4.807434 34,000 303 475 0
2019-06-18 12:25:29 GMT 54.468399 -4.799444 34,000 303 475 0
2019-06-18 12:25:26 GMT 54.464581 -4.788874 34,000 303 475 0
2019-06-18 12:25:23 GMT 54.460281 -4.777033 34,000 303 476 0
2019-06-18 12:25:17 GMT 54.450336 -4.749922 34,000 303 476 0
2019-06-18 12:25:14 GMT 54.450336 -4.749922 34,000 303 476 0
2019-06-18 12:25:11 GMT 54.446285 -4.738686 34,000 303 476 0
2019-06-18 12:25:08 GMT 54.444534 -4.733896 34,000 303 476 0
2019-06-18 12:25:05 GMT 54.439861 -4.721125 34,000 303 476 0
2019-06-18 12:25:02 GMT 54.432182 -4.699984 34,000 303 476 0
2019-06-18 12:24:56 GMT 54.428879 -4.691081 34,000 303 476 0
2019-06-18 12:24:53 GMT 54.426689 -4.685003 34,000 303 477 0
2019-06-18 12:24:50 GMT 54.422470 -4.673471 34,000 303 477 0
2019-06-18 12:24:47 GMT 54.417892 -4.660950 34,000 303 477 0
2019-06-18 12:24:44 GMT 54.414631 -4.652044 34,000 303 477 0
2019-06-18 12:24:41 GMT 54.412766 -4.646894 34,000 303 477 0
2019-06-18 12:24:38 GMT 54.408783 -4.636069 34,000 303 477 0
2019-06-18 12:24:34 GMT 54.403748 -4.622336 34,000 303 477 0
2019-06-18 12:24:31 GMT 54.400246 -4.612760 34,000 303 477 0
2019-06-18 12:24:28 GMT 54.392853 -4.592608 34,000 303 477 0
2019-06-18 12:24:25 GMT 54.392853 -4.592608 34,000 303 477 0
2019-06-18 12:24:19 GMT 54.386261 -4.574756 34,000 303 477 0
2019-06-18 12:24:15 GMT 54.381317 -4.561346 34,000 303 477 0
2019-06-18 12:24:12 GMT 54.376831 -4.549228 34,000 303 477 0
2019-06-18 12:24:09 GMT 54.373665 -4.540599 34,000 303 478 0
2019-06-18 12:24:05 GMT 54.369461 -4.529114 34,000 303 477 0
2019-06-18 12:24:02 GMT 54.366486 -4.521116 34,000 303 478 0
2019-06-18 12:23:59 GMT 54.362869 -4.511180 34,000 303 477 0
2019-06-18 12:23:56 GMT 54.356255 -4.493325 34,000 303 478 0
2019-06-18 12:23:50 GMT 54.350464 -4.477737 34,000 303 478 0
2019-06-18 12:23:46 GMT 54.347397 -4.469416 34,000 303 478 0
2019-06-18 12:23:43 GMT 54.340195 -4.449962 34,000 303 478 0
2019-06-18 12:23:37 GMT 54.336685 -4.440335 34,000 303 478 0
2019-06-18 12:23:33 GMT 54.331955 -4.427573 34,000 303 478 0
2019-06-18 12:23:30 GMT 54.326614 -4.413273 34,000 303 478 0
2019-06-18 12:23:27 GMT 54.324966 -4.408749 34,000 303 478 0
2019-06-18 12:23:24 GMT 54.321434 -4.399192 34,000 303 478 -64
2019-06-18 12:23:21 GMT 54.317989 -4.389954 34,000 303 478 0
2019-06-18 12:23:18 GMT 54.314312 -4.380049 34,000 303 478 0
2019-06-18 12:23:15 GMT 54.306026 -4.357744 34,000 303 478 0
2019-06-18 12:23:12 GMT 54.306026 -4.357744 34,000 303 478 0
2019-06-18 12:23:08 GMT 54.302254 -4.347590 34,000 303 478 0
2019-06-18 12:23:05 GMT 54.299377 -4.339923 34,000 303 478 0
2019-06-18 12:23:02 GMT 54.295132 -4.328447 34,000 303 478 0
2019-06-18 12:22:59 GMT 54.292282 -4.320777 34,000 303 478 0
2019-06-18 12:22:55 GMT 54.287292 -4.307448 34,000 303 478 0
2019-06-18 12:22:52 GMT 54.284241 -4.299150 34,000 303 478 0
2019-06-18 12:22:49 GMT 54.280563 -4.289273 34,000 303 478 0
2019-06-18 12:22:46 GMT 54.276398 -4.278076 34,000 303 478 0
2019-06-18 12:22:43 GMT 54.272736 -4.268188 34,000 303 478 0
2019-06-18 12:22:40 GMT 54.268688 -4.257364 34,000 303 478 0
2019-06-18 12:22:37 GMT 54.260635 -4.235714 34,000 303 478 0
2019-06-18 12:22:34 GMT 54.260635 -4.235714 34,000 303 478 0
2019-06-18 12:22:31 GMT 54.258728 -4.230625 34,000 303 478 0
2019-06-18 12:22:28 GMT 54.254013 -4.217887 34,000 303 479 0
2019-06-18 12:22:25 GMT 54.250908 -4.209622 34,000 303 479 0
2019-06-18 12:22:22 GMT 54.247929 -4.201624 34,000 303 479 0
2019-06-18 12:22:19 GMT 54.241516 -4.184457 34,000 303 479 0
2019-06-18 12:22:13 GMT 54.236526 -4.171038 34,000 303 479 0
2019-06-18 12:22:10 GMT 54.233185 -4.162170 34,000 303 479 0
2019-06-18 12:22:07 GMT 54.226887 -4.145319 34,000 303 479 0
2019-06-18 12:22:04 GMT 54.226887 -4.145319 34,000 303 479 0
2019-06-18 12:22:01 GMT 54.223675 -4.136676 34,000 303 479 0
2019-06-18 12:21:58 GMT 54.218399 -4.122698 34,000 303 479 0
2019-06-18 12:21:55 GMT 54.216503 -4.117611 34,000 303 479 0
2019-06-18 12:21:52 GMT 54.210800 -4.102373 34,000 303 479 0
2019-06-18 12:21:49 GMT 54.209011 -4.097658 34,000 303 479 0
2019-06-18 12:21:46 GMT 54.205673 -4.088719 34,000 303 479 0
2019-06-18 12:21:43 GMT 54.201607 -4.077947 34,000 303 479 0
2019-06-18 12:21:40 GMT 54.198486 -4.069650 34,000 303 479 0
2019-06-18 12:21:37 GMT 54.194206 -4.058237 34,000 303 479 0
2019-06-18 12:21:31 GMT 54.186218 -4.036926 34,000 303 479 0
2019-06-18 12:21:28 GMT 54.182648 -4.027431 34,000 303 479 0
2019-06-18 12:21:25 GMT 54.179775 -4.019784 34,000 303 479 0
2019-06-18 12:21:21 GMT 54.175121 -4.007425 34,000 303 479 0
2019-06-18 12:21:18 GMT 54.171524 -3.997925 34,000 303 479 0
2019-06-18 12:21:15 GMT 54.167816 -3.988037 34,000 303 479 0
2019-06-18 12:21:12 GMT 54.164566 -3.979483 34,000 303 479 0
2019-06-18 12:21:09 GMT 54.159573 -3.966145 34,000 303 480 0
2019-06-18 12:21:06 GMT 54.157288 -3.960100 34,000 303 480 0
2019-06-18 12:21:03 GMT 54.150215 -3.941426 34,000 303 480 0
2019-06-18 12:20:57 GMT 54.146027 -3.930278 34,000 303 480 0
2019-06-18 12:20:54 GMT 54.142639 -3.921413 34,000 303 480 0
2019-06-18 12:20:51 GMT 54.138344 -3.910002 34,000 303 480 0
2019-06-18 12:20:48 GMT 54.136669 -3.905559 34,000 303 480 0
2019-06-18 12:20:45 GMT 54.131287 -3.891279 34,000 303 480 0
2019-06-18 12:20:41 GMT 54.127533 -3.881470 34,000 303 480 0
2019-06-18 12:20:38 GMT 54.123493 -3.870661 34,000 303 480 0
2019-06-18 12:20:35 GMT 54.119888 -3.861145 34,000 303 480 0
2019-06-18 12:20:32 GMT 54.116135 -3.851336 34,000 303 480 0
2019-06-18 12:20:29 GMT 54.107155 -3.827524 34,000 303 480 0
2019-06-18 12:20:25 GMT 54.107155 -3.827524 34,000 303 480 0
2019-06-18 12:20:22 GMT 54.104267 -3.819930 34,000 303 480 0
2019-06-18 12:20:18 GMT 54.099613 -3.807571 34,000 303 480 0
2019-06-18 12:20:15 GMT 54.096222 -3.798680 34,000 303 480 0
2019-06-18 12:20:12 GMT 54.092010 -3.787615 34,000 303 480 0
2019-06-18 12:20:09 GMT 54.088905 -3.779378 34,000 303 480 0
2019-06-18 12:20:06 GMT 54.084949 -3.768957 34,000 303 480 0
2019-06-18 12:20:03 GMT 54.079880 -3.755598 34,000 303 480 0
2019-06-18 12:20:00 GMT 54.078186 -3.751203 34,000 303 481 0
2019-06-18 12:19:57 GMT 54.074707 -3.742022 34,000 303 481 0
2019-06-18 12:19:53 GMT 54.069992 -3.729623 34,000 303 481 0
2019-06-18 12:19:47 GMT 54.062138 -3.709017 34,000 303 481 0
2019-06-18 12:19:43 GMT 54.056690 -3.694799 34,000 303 481 0
2019-06-18 12:19:40 GMT 54.054291 -3.688424 34,000 303 481 0
2019-06-18 12:19:37 GMT 54.048965 -3.674442 34,000 303 482 0
2019-06-18 12:19:34 GMT 54.045704 -3.665879 34,000 303 481 0
2019-06-18 12:19:31 GMT 54.042938 -3.658604 34,000 303 481 0
2019-06-18 12:19:28 GMT 54.035934 -3.640241 34,000 303 481 0
2019-06-18 12:19:22 GMT 54.028339 -3.620237 34,000 303 481 0
2019-06-18 12:19:19 GMT 54.028339 -3.620237 34,000 303 481 0
2019-06-18 12:19:16 GMT 54.023407 -3.607312 34,000 303 481 0
2019-06-18 12:19:13 GMT 54.019775 -3.597787 34,000 303 480 0
2019-06-18 12:19:10 GMT 54.017494 -3.591802 34,000 303 480 0
2019-06-18 12:19:07 GMT 54.013954 -3.582593 34,000 303 480 0
2019-06-18 12:19:03 GMT 54.008331 -3.567732 34,000 303 480 0
2019-06-18 12:18:57 GMT 54.000961 -3.548427 34,000 303 481 0
2019-06-18 12:18:54 GMT 53.998398 -3.541835 34,000 303 481 0
2019-06-18 12:18:51 GMT 53.995377 -3.533909 34,000 304 480 0
2019-06-18 12:18:48 GMT 53.991192 -3.522895 34,000 304 480 0
2019-06-18 12:18:45 GMT 53.982815 -3.501084 34,000 303 481 0
2019-06-18 12:18:39 GMT 53.980179 -3.494123 34,000 304 481 0
2019-06-18 12:18:36 GMT 53.975552 -3.482101 34,000 304 481 0
2019-06-18 12:18:32 GMT 53.971313 -3.471114 34,000 304 481 0
2019-06-18 12:18:29 GMT 53.963539 -3.450919 34,000 304 481 0
2019-06-18 12:18:26 GMT 53.963539 -3.450919 34,000 304 482 0
2019-06-18 12:18:22 GMT 53.958389 -3.437701 34,000 304 482 0
2019-06-18 12:18:16 GMT 53.946407 -3.406893 34,000 304 481 0
2019-06-18 12:18:13 GMT 53.946407 -3.406893 34,000 304 482 0
2019-06-18 12:18:10 GMT 53.944313 -3.401561 34,000 304 482 0
2019-06-18 12:18:03 GMT 53.935471 -3.378942 34,000 304 482 0
2019-06-18 12:18:00 GMT 53.932674 -3.371753 34,000 304 481 0
2019-06-18 12:17:57 GMT 53.928860 -3.361978 34,000 304 481 0
2019-06-18 12:17:54 GMT 53.921356 -3.342904 34,000 304 481 0
2019-06-18 12:17:51 GMT 53.921356 -3.342904 34,000 304 481 0
2019-06-18 12:17:48 GMT 53.918526 -3.335643 34,000 304 481 0
2019-06-18 12:17:45 GMT 53.913483 -3.322815 34,000 304 481 0
2019-06-18 12:17:42 GMT 53.907070 -3.306481 34,000 304 481 0
2019-06-18 12:17:39 GMT 53.907070 -3.306481 34,000 304 481 0
2019-06-18 12:17:36 GMT 53.903255 -3.296787 34,000 304 481 0
2019-06-18 12:17:33 GMT 53.899567 -3.287345 34,000 304 481 0
2019-06-18 12:17:29 GMT 53.894302 -3.273926 34,000 304 481 0
2019-06-18 12:17:26 GMT 53.891235 -3.266078 34,000 304 481 0
2019-06-18 12:17:23 GMT 53.885788 -3.252267 34,000 304 481 0
2019-06-18 12:17:19 GMT 53.880981 -3.240025 34,000 304 481 0
2019-06-18 12:17:16 GMT 53.877411 -3.231001 34,000 304 481 0
2019-06-18 12:17:13 GMT 53.874950 -3.224730 34,000 304 481 0
2019-06-18 12:17:10 GMT 53.871277 -3.215306 34,000 304 481 0
2019-06-18 12:17:07 GMT 53.867432 -3.205575 34,000 304 481 0
2019-06-18 12:17:04 GMT 53.863129 -3.194667 34,000 304 481 0
2019-06-18 12:17:01 GMT 53.860062 -3.186820 34,000 304 481 0
2019-06-18 12:16:58 GMT 53.855484 -3.175284 34,000 304 481 0
2019-06-18 12:16:55 GMT 53.852142 -3.166809 34,000 304 481 0
2019-06-18 12:16:51 GMT 53.846008 -3.151114 34,000 304 481 0
2019-06-18 12:16:48 GMT 53.843536 -3.144915 34,000 304 481 0
2019-06-18 12:16:45 GMT 53.840084 -3.136112 34,000 304 481 0
2019-06-18 12:16:42 GMT 53.835892 -3.125532 34,000 304 481 0
2019-06-18 12:16:39 GMT 53.833328 -3.118940 34,000 304 481 0
2019-06-18 12:16:36 GMT 53.827888 -3.105173 34,000 304 481 0
2019-06-18 12:16:33 GMT 53.824581 -3.096771 34,000 304 481 0
2019-06-18 12:16:30 GMT 53.822208 -3.090793 34,000 304 481 0
2019-06-18 12:16:27 GMT 53.817924 -3.079888 34,000 304 480 0
2019-06-18 12:16:24 GMT 53.814339 -3.070840 34,000 304 481 0
2019-06-18 12:16:21 GMT 53.809387 -3.058358 34,000 304 481 0
2019-06-18 12:16:18 GMT 53.806091 -3.049883 34,000 304 481 0
2019-06-18 12:16:15 GMT 53.803619 -3.043684 34,000 304 481 0
2019-06-18 12:16:12 GMT 53.799908 -3.034327 34,000 304 481 0
2019-06-18 12:16:09 GMT 53.794830 -3.021554 34,000 304 481 0
2019-06-18 12:16:06 GMT 53.791992 -3.014413 34,000 304 481 0
2019-06-18 12:16:02 GMT 53.786781 -3.001287 34,000 304 481 0
2019-06-18 12:15:58 GMT 53.782104 -2.989458 34,000 304 481 0
2019-06-18 12:15:55 GMT 53.778400 -2.980122 34,000 304 481 0
2019-06-18 12:15:51 GMT 53.773453 -2.967721 34,000 304 480 0
2019-06-18 12:15:48 GMT 53.768627 -2.955565 34,000 304 481 0
2019-06-18 12:15:45 GMT 53.765991 -2.949044 34,000 304 480 0
2019-06-18 12:15:42 GMT 53.762527 -2.940297 34,000 304 480 0
2019-06-18 12:15:39 GMT 53.758575 -2.930368 34,000 304 480 0
2019-06-18 12:15:36 GMT 53.754009 -2.918890 34,000 304 480 0
2019-06-18 12:15:32 GMT 53.749401 -2.907338 34,000 304 480 64
2019-06-18 12:15:29 GMT 53.746811 -2.900861 34,000 304 480 64
2019-06-18 12:15:26 GMT 53.742966 -2.891209 34,000 304 480 0
2019-06-18 12:15:23 GMT 53.739159 -2.881568 34,000 304 480 0
2019-06-18 12:15:20 GMT 53.731476 -2.862262 34,000 304 480 0
2019-06-18 12:15:17 GMT 53.731476 -2.862262 34,000 304 480 -64
2019-06-18 12:15:14 GMT 53.727768 -2.852992 34,000 305 480 -64
2019-06-18 12:15:10 GMT 53.719345 -2.831883 34,000 304 480 -64
2019-06-18 12:15:04 GMT 53.716255 -2.824133 34,000 304 480 -64
2019-06-18 12:15:01 GMT 53.707085 -2.801191 34,000 304 480 128
2019-06-18 12:14:58 GMT 53.707085 -2.801191 34,000 304 479 256
2019-06-18 12:14:55 GMT 53.703732 -2.792870 34,000 304 480 192
2019-06-18 12:14:52 GMT 53.699799 -2.782915 34,000 304 479 320
2019-06-18 12:14:49 GMT 53.692337 -2.764396 33,950 304 479 768
2019-06-18 12:14:46 GMT 53.692337 -2.764396 33,900 304 479 960
2019-06-18 12:14:43 GMT 53.688538 -2.754743 33,825 305 480 960
2019-06-18 12:14:40 GMT 53.685791 -2.747995 33,800 305 480 960
2019-06-18 12:14:37 GMT 53.682083 -2.738665 33,775 305 480 896
2019-06-18 12:14:34 GMT 53.678329 -2.729396 33,550 304 481 896
2019-06-18 12:14:31 GMT 53.675262 -2.721627 33,675 304 481 832
2019-06-18 12:14:28 GMT 53.671284 -2.711765 33,625 304 481 832
2019-06-18 12:14:25 GMT 53.667068 -2.701224 33,600 304 481 832
2019-06-18 12:14:22 GMT 53.663605 -2.692539 33,575 304 481 832
2019-06-18 12:14:18 GMT 53.658623 -2.680099 33,425 304 481 832
2019-06-18 12:14:15 GMT 53.653656 -2.667637 33,475 304 482 832
2019-06-18 12:14:12 GMT 53.650955 -2.660810 33,425 304 481 768
2019-06-18 12:14:09 GMT 53.646614 -2.649967 33,375 304 481 768
2019-06-18 12:14:05 GMT 53.641937 -2.638131 33,325 304 481 704
2019-06-18 12:14:02 GMT 53.638733 -2.630048 33,275 297 477 0
2019-06-18 12:13:59 GMT 53.634789 -2.620078 33,275 304 481 704
2019-06-18 12:13:56 GMT 53.630585 -2.609567 33,225 304 481 640
2019-06-18 12:13:53 GMT 53.627518 -2.601719 33,175 304 480 576
2019-06-18 12:13:50 GMT 53.623489 -2.591518 33,175 297 477 0
2019-06-18 12:13:46 GMT 53.618500 -2.578727 33,125 304 480 640
2019-06-18 12:13:43 GMT 53.616074 -2.572497 33,100 304 479 640
2019-06-18 12:13:40 GMT 53.610764 -2.558794 33,050 301 477 1152
2019-06-18 12:13:37 GMT 53.607136 -2.549394 33,025 303 478 768
2019-06-18 12:13:34 GMT 53.605225 -2.544434 33,000 303 478 768
2019-06-18 12:13:31 GMT 53.601177 -2.533722 32,975 303 478 832
2019-06-18 12:13:27 GMT 53.595978 -2.519950 32,900 303 478 896
2019-06-18 12:13:24 GMT 53.592133 -2.509591 32,725 301 477 1152
2019-06-18 12:13:21 GMT 53.589203 -2.501744 32,775 302 478 1024
2019-06-18 12:13:18 GMT 53.586235 -2.493493 32,750 302 477 1088
2019-06-18 12:13:15 GMT 53.581421 -2.480164 32,675 301 477 1152
2019-06-18 12:13:12 GMT 53.577438 -2.469099 32,650 301 477 1152
2019-06-18 12:13:09 GMT 53.574783 -2.461422 32,575 301 478 1216
2019-06-18 12:13:06 GMT 53.572128 -2.453718 32,500 300 478 1216
2019-06-18 12:13:03 GMT 53.568054 -2.441790 32,450 300 477 1280
2019-06-18 12:13:00 GMT 53.564865 -2.432098 32,375 299 477 1280
2019-06-18 12:12:57 GMT 53.562744 -2.425624 32,350 299 477 1280
2019-06-18 12:12:54 GMT 53.559036 -2.414246 32,250 298 477 1216
2019-06-18 12:12:51 GMT 53.555878 -2.404044 32,200 298 477 1152
2019-06-18 12:12:48 GMT 53.553883 -2.397443 32,125 296 477 1024
2019-06-18 12:12:45 GMT 53.550430 -2.385838 32,075 296 477 1024
2019-06-18 12:12:42 GMT 53.547638 -2.376186 32,025 296 477 768
2019-06-18 12:12:39 GMT 53.544113 -2.363473 32,000 295 477 640
2019-06-18 12:12:36 GMT 53.542236 -2.356803 32,000 296 476 192
2019-06-18 12:12:33 GMT 53.539307 -2.346444 32,000 296 476 0
2019-06-18 12:12:30 GMT 53.535553 -2.333496 32,000 297 477 0
2019-06-18 12:12:27 GMT 53.529346 -2.312622 32,000 297 478 0
2019-06-18 12:12:24 GMT 53.529346 -2.312622 32,000 297 478 0
2019-06-18 12:12:21 GMT 53.527809 -2.307694 32,000 298 478 0
2019-06-18 12:12:18 GMT 53.523514 -2.293867 32,000 298 479 0
2019-06-18 12:12:15 GMT 53.521481 -2.287337 32,000 299 480 0
2019-06-18 12:12:12 GMT 53.516964 -2.273281 32,000 299 479 0
2019-06-18 12:12:09 GMT 53.511192 -2.255671 32,000 299 479 0
2019-06-18 12:12:06 GMT 53.511192 -2.255671 32,000 300 480 0
2019-06-18 12:12:02 GMT 53.506351 -2.241049 32,000 300 480 0
2019-06-18 12:11:59 GMT 53.503693 -2.233285 32,000 300 481 0
2019-06-18 12:11:56 GMT 53.500031 -2.222613 32,000 301 481 64
2019-06-18 12:11:53 GMT 53.496201 -2.211726 32,000 301 482 64
2019-06-18 12:11:50 GMT 53.492798 -2.202053 32,000 302 483 64
2019-06-18 12:11:47 GMT 53.490383 -2.195327 32,000 301 482 64
2019-06-18 12:11:44 GMT 53.486938 -2.185730 32,000 301 482 64
2019-06-18 12:11:41 GMT 53.483074 -2.174808 32,000 301 482 0
2019-06-18 12:11:38 GMT 53.479351 -2.164226 32,000 301 482 0
2019-06-18 12:11:35 GMT 53.473892 -2.148376 32,000 301 482 -64
2019-06-18 12:11:29 GMT 53.467072 -2.128680 32,000 301 483 -64
2019-06-18 12:11:26 GMT 53.461807 -2.114005 32,000 301 483 -64
2019-06-18 12:11:22 GMT 53.461807 -2.114005 32,025 302 482 -64
2019-06-18 12:11:19 GMT 53.455627 -2.097525 32,000 305 485 0
2019-06-18 12:11:13 GMT 53.446529 -2.076497 32,000 320 500 0
2019-06-18 12:11:10 GMT 53.446529 -2.076497 32,000 314 494 64
2019-06-18 12:11:07 GMT 53.441803 -2.067313 32,000 314 494 128
2019-06-18 12:11:04 GMT 53.438828 -2.062055 32,000 317 496 64
2019-06-18 12:11:01 GMT 53.433029 -2.052747 32,000 320 500 0
2019-06-18 12:10:58 GMT 53.426834 -2.044085 31,975 323 504 -64
2019-06-18 12:10:55 GMT 53.423538 -2.039847 31,975 323 504 -64
2019-06-18 12:10:52 GMT 53.417343 -2.032794 32,000 329 508 -64
2019-06-18 12:10:49 GMT 53.410126 -2.025408 32,000 331 509 0
2019-06-18 12:10:46 GMT 53.398270 -2.014029 32,000 331 510 0
2019-06-18 12:10:43 GMT 53.398270 -2.014029 32,000 331 510 0
2019-06-18 12:10:40 GMT 53.391907 -2.007987 32,000 331 510 0
2019-06-18 12:10:37 GMT 53.385780 -2.002178 32,000 331 510 0
2019-06-18 12:10:34 GMT 53.378815 -1.995588 32,000 331 510 0
2019-06-18 12:10:31 GMT 53.371216 -1.988368 32,000 331 510 0
2019-06-18 12:10:28 GMT 53.367111 -1.984486 32,000 327 506 0
2019-06-18 12:10:25 GMT 53.361008 -1.978638 32,000 331 510 0
2019-06-18 12:10:22 GMT 53.353409 -1.971418 32,000 331 511 0
2019-06-18 12:10:19 GMT 53.349331 -1.967522 32,000 331 510 0
2019-06-18 12:10:16 GMT 53.340729 -1.959333 32,000 331 510 0
2019-06-18 12:10:12 GMT 53.334412 -1.953291 32,000 331 510 0
2019-06-18 12:10:09 GMT 53.329285 -1.948425 32,000 331 510 0
2019-06-18 12:10:06 GMT 53.321117 -1.940622 32,000 331 510 0
2019-06-18 12:10:03 GMT 53.314369 -1.934159 32,000 331 510 0
2019-06-18 12:10:00 GMT 53.309875 -1.929827 32,000 331 510 0
2019-06-18 12:09:57 GMT 53.303513 -1.923785 32,000 331 510 0
2019-06-18 12:09:53 GMT 53.295547 -1.916251 32,000 331 510 0
2019-06-18 12:09:50 GMT 53.288818 -1.909816 32,000 330 508 0
2019-06-18 12:09:47 GMT 53.282295 -1.903462 32,000 330 509 0
2019-06-18 12:09:44 GMT 53.276276 -1.897339 32,000 326 505 0
2019-06-18 12:09:41 GMT 53.272888 -1.893886 32,000 328 507 0
2019-06-18 12:09:38 GMT 53.266113 -1.886823 32,000 325 505 0
2019-06-18 12:09:35 GMT 53.253937 -1.873640 32,000 326 505 0
2019-06-18 12:09:29 GMT 53.248173 -1.867110 32,000 326 505 0
2019-06-18 12:09:26 GMT 53.242214 -1.860244 32,000 325 504 0
2019-06-18 12:09:23 GMT 53.234985 -1.851667 32,000 325 504 0
2019-06-18 12:09:20 GMT 53.226746 -1.841544 32,000 322 502 0
2019-06-18 12:09:14 GMT 53.212234 -1.822923 32,000 322 502 0
2019-06-18 12:09:10 GMT 53.212234 -1.822923 32,000 322 502 0
2019-06-18 12:09:07 GMT 53.205734 -1.814235 32,000 321 500 0
2019-06-18 12:09:03 GMT 53.198318 -1.803798 32,000 320 500 0
2019-06-18 12:09:00 GMT 53.187840 -1.788752 32,000 319 499 0
2019-06-18 12:08:56 GMT 53.187840 -1.788752 32,000 319 499 0
2019-06-18 12:08:53 GMT 53.180740 -1.778373 32,000 319 499 0
2019-06-18 12:08:50 GMT 53.177414 -1.773565 32,000 319 499 0
2019-06-18 12:08:47 GMT 53.172012 -1.765810 32,000 319 499 0
2019-06-18 12:08:43 GMT 53.163353 -1.753208 32,000 319 499 0
2019-06-18 12:08:40 GMT 53.159863 -1.748119 32,000 319 499 0
2019-06-18 12:08:37 GMT 53.152725 -1.737802 32,000 319 499 0
2019-06-18 12:08:34 GMT 53.147507 -1.730268 32,000 319 499 0
2019-06-18 12:08:31 GMT 53.143707 -1.724773 32,000 319 499 0
2019-06-18 12:08:28 GMT 53.137070 -1.715201 32,000 319 499 0
2019-06-18 12:08:25 GMT 53.129417 -1.704093 32,000 319 499 0
2019-06-18 12:08:22 GMT 53.129417 -1.704093 32,000 319 499 0
2019-06-18 12:08:19 GMT 53.121964 -1.693307 32,000 319 499 0
2019-06-18 12:08:16 GMT 53.117966 -1.687532 32,000 319 499 0
2019-06-18 12:08:13 GMT 53.107166 -1.671941 32,000 319 499 0
2019-06-18 12:08:10 GMT 53.107166 -1.671941 32,000 319 499 0
2019-06-18 12:08:07 GMT 53.102139 -1.664671 32,000 319 499 0
2019-06-18 12:08:04 GMT 53.097977 -1.658622 32,000 319 499 0
2019-06-18 12:08:01 GMT 53.091709 -1.649519 32,000 319 499 0
2019-06-18 12:07:58 GMT 53.085613 -1.640730 32,000 319 499 0
2019-06-18 12:07:55 GMT 53.080536 -1.633432 32,000 319 499 0
2019-06-18 12:07:52 GMT 53.071335 -1.620102 32,000 319 499 0
2019-06-18 12:07:49 GMT 53.066986 -1.613846 32,000 320 500 0
2019-06-18 12:07:43 GMT 53.056004 -1.597961 32,000 320 500 0
2019-06-18 12:07:40 GMT 53.056004 -1.597961 32,000 320 500 0
2019-06-18 12:07:37 GMT 53.050415 -1.589966 32,000 320 500 0
2019-06-18 12:07:34 GMT 53.044132 -1.580933 32,000 320 500 0
2019-06-18 12:07:31 GMT 53.034359 -1.566886 32,000 320 500 0
2019-06-18 12:07:25 GMT 53.022995 -1.550598 32,000 320 500 0
2019-06-18 12:07:19 GMT 53.018623 -1.544364 32,000 320 501 0
2019-06-18 12:07:16 GMT 53.012337 -1.535339 32,000 320 500 0
2019-06-18 12:07:13 GMT 53.006744 -1.527328 32,000 320 500 0
2019-06-18 12:07:10 GMT 53.001343 -1.519547 32,000 320 501 0
2019-06-18 12:07:07 GMT 52.991913 -1.506042 32,000 320 501 0
2019-06-18 12:07:01 GMT 52.987518 -1.499786 32,000 320 500 0
2019-06-18 12:06:58 GMT 52.982124 -1.492022 32,000 320 501 0
2019-06-18 12:06:55 GMT 52.975983 -1.483231 32,000 320 501 0
2019-06-18 12:06:52 GMT 52.972301 -1.477975 32,000 320 501 0
2019-06-18 12:06:49 GMT 52.965866 -1.468735 32,000 320 501 0
2019-06-18 12:06:46 GMT 52.961132 -1.461888 32,000 320 500 0
2019-06-18 12:06:43 GMT 52.955887 -1.454391 32,000 320 500 0
2019-06-18 12:06:40 GMT 52.950146 -1.446115 32,000 320 501 0
2019-06-18 12:06:37 GMT 52.945583 -1.439601 32,000 320 501 0
2019-06-18 12:06:33 GMT 52.938400 -1.429291 32,000 320 501 0
2019-06-18 12:06:30 GMT 52.931259 -1.419067 32,000 320 501 0
2019-06-18 12:06:27 GMT 52.919678 -1.402512 32,000 320 501 0
2019-06-18 12:06:23 GMT 52.919678 -1.402512 32,000 320 501 0
2019-06-18 12:06:20 GMT 52.915836 -1.396990 32,000 320 501 0
2019-06-18 12:06:17 GMT 52.911118 -1.390305 32,000 320 501 0
2019-06-18 12:06:13 GMT 52.901688 -1.376724 32,000 320 501 0
2019-06-18 12:06:10 GMT 52.898148 -1.371722 32,000 320 501 0
2019-06-18 12:06:07 GMT 52.893265 -1.364746 32,000 320 501 0
2019-06-18 12:06:04 GMT 52.886276 -1.354771 32,000 320 501 0
2019-06-18 12:06:01 GMT 52.877663 -1.342529 32,000 320 501 0
2019-06-18 12:05:58 GMT 52.870495 -1.332249 32,000 320 501 0
2019-06-18 12:05:55 GMT 52.870495 -1.332249 32,000 320 501 0
2019-06-18 12:05:51 GMT 52.865204 -1.324768 32,000 320 501 0
2019-06-18 12:05:48 GMT 52.859089 -1.316005 32,000 320 501 0
2019-06-18 12:05:45 GMT 52.853119 -1.307526 32,000 320 501 0
2019-06-18 12:05:42 GMT 52.847870 -1.300075 32,000 320 502 0
2019-06-18 12:05:39 GMT 52.843632 -1.294111 32,000 320 501 0
2019-06-18 12:05:36 GMT 52.838184 -1.286342 32,000 320 501 0
2019-06-18 12:05:33 GMT 52.833485 -1.279593 32,000 320 501 0
2019-06-18 12:05:30 GMT 52.827164 -1.270676 32,000 320 501 0
2019-06-18 12:05:27 GMT 52.822918 -1.264683 32,000 320 502 0
2019-06-18 12:05:24 GMT 52.815536 -1.254196 32,000 320 502 0
2019-06-18 12:05:21 GMT 52.806061 -1.240692 32,000 320 502 0
2019-06-18 12:05:18 GMT 52.806061 -1.240692 32,000 320 502 0
2019-06-18 12:05:15 GMT 52.802032 -1.234970 32,000 320 502 0
2019-06-18 12:05:12 GMT 52.795166 -1.225281 32,000 320 502 0
2019-06-18 12:05:09 GMT 52.791309 -1.219796 32,000 320 502 0
2019-06-18 12:05:06 GMT 52.785118 -1.211086 32,000 320 502 0
2019-06-18 12:05:03 GMT 52.779877 -1.203613 32,000 320 502 0
2019-06-18 12:05:00 GMT 52.769104 -1.188407 32,000 320 503 0
2019-06-18 12:04:57 GMT 52.763489 -1.180420 32,000 320 502 0
2019-06-18 12:04:54 GMT 52.763489 -1.180420 32,000 320 502 0
2019-06-18 12:04:50 GMT 52.757137 -1.171456 32,000 320 502 0
2019-06-18 12:04:47 GMT 52.752064 -1.164237 32,000 320 503 0
2019-06-18 12:04:44 GMT 52.747467 -1.157684 32,000 320 503 0
2019-06-18 12:04:41 GMT 52.743404 -1.151995 32,000 320 503 0
2019-06-18 12:04:38 GMT 52.736893 -1.142731 32,000 320 503 0
2019-06-18 12:04:35 GMT 52.730713 -1.134033 32,000 320 503 0
2019-06-18 12:04:29 GMT 52.719990 -1.118801 32,000 320 503 0
2019-06-18 12:04:26 GMT 52.715378 -1.112366 32,000 320 504 0
2019-06-18 12:04:23 GMT 52.709198 -1.103592 32,000 320 504 0
2019-06-18 12:04:20 GMT 52.703018 -1.094894 32,000 320 504 0
2019-06-18 12:04:17 GMT 52.699509 -1.089922 32,000 320 504 0
2019-06-18 12:04:14 GMT 52.692078 -1.079483 32,000 320 505 0
2019-06-18 12:04:11 GMT 52.687271 -1.072769 32,000 320 504 0
2019-06-18 12:04:08 GMT 52.683586 -1.067479 32,000 320 505 0
2019-06-18 12:04:05 GMT 52.676510 -1.057513 32,000 320 505 0
2019-06-18 12:04:02 GMT 52.671524 -1.050568 32,000 320 505 0
2019-06-18 12:03:59 GMT 52.663193 -1.038818 32,000 320 505 0
2019-06-18 12:03:53 GMT 52.657192 -1.030361 32,000 320 505 0
2019-06-18 12:03:50 GMT 52.645645 -1.014195 32,000 320 505 0
2019-06-18 12:03:47 GMT 52.645645 -1.014195 32,000 320 505 0
2019-06-18 12:03:43 GMT 52.638756 -1.004464 32,000 320 505 0
2019-06-18 12:03:39 GMT 52.630920 -0.993500 32,000 320 505 0
2019-06-18 12:03:36 GMT 52.624886 -0.985003 32,000 320 506 0
2019-06-18 12:03:33 GMT 52.620987 -0.979538 32,000 320 505 0
2019-06-18 12:03:30 GMT 52.614922 -0.971034 32,000 320 506 0
2019-06-18 12:03:27 GMT 52.610687 -0.965118 32,000 320 506 0
2019-06-18 12:03:24 GMT 52.605881 -0.958405 32,000 320 505 0
2019-06-18 12:03:21 GMT 52.601234 -0.951887 32,000 320 507 0
2019-06-18 12:03:18 GMT 52.594299 -0.942156 32,000 320 506 0
2019-06-18 12:03:15 GMT 52.583084 -0.926514 32,000 320 507 0
2019-06-18 12:03:12 GMT 52.577026 -0.918065 32,000 320 507 0
2019-06-18 12:03:09 GMT 52.577026 -0.918065 32,000 320 507 0
2019-06-18 12:03:06 GMT 52.567390 -0.904567 32,000 320 507 0
2019-06-18 12:03:03 GMT 52.561527 -0.896406 32,000 320 507 0
2019-06-18 12:03:00 GMT 52.561527 -0.896406 32,000 320 507 0
2019-06-18 12:02:57 GMT 52.555660 -0.888166 32,000 320 507 0
2019-06-18 12:02:54 GMT 52.550995 -0.881653 32,000 320 507 0
2019-06-18 12:02:50 GMT 52.544769 -0.872955 32,000 320 507 0
2019-06-18 12:02:47 GMT 52.539230 -0.865250 32,000 320 507 0
2019-06-18 12:02:44 GMT 52.533691 -0.857544 32,000 320 507 0
2019-06-18 12:02:41 GMT 52.527466 -0.848770 32,000 320 507 0
2019-06-18 12:02:38 GMT 52.522980 -0.842590 32,000 320 507 0
2019-06-18 12:02:35 GMT 52.517254 -0.834647 32,000 320 507 0
2019-06-18 12:02:32 GMT 52.513161 -0.828918 32,000 320 507 0
2019-06-18 12:02:29 GMT 52.506920 -0.820208 32,000 320 507 0
2019-06-18 12:02:26 GMT 52.496586 -0.805690 32,000 320 507 0
2019-06-18 12:02:23 GMT 52.496586 -0.805690 32,000 320 507 0
2019-06-18 12:02:20 GMT 52.486904 -0.792271 32,000 320 507 0
2019-06-18 12:02:17 GMT 52.486904 -0.792271 32,000 320 507 0
2019-06-18 12:02:14 GMT 52.479965 -0.782619 32,000 320 507 0
2019-06-18 12:02:11 GMT 52.474594 -0.775146 32,000 320 507 0
2019-06-18 12:02:08 GMT 52.468887 -0.767160 32,000 320 508 0
2019-06-18 12:02:05 GMT 52.463516 -0.759735 32,000 320 508 0
2019-06-18 12:01:59 GMT 52.452438 -0.744324 32,000 320 508 0
2019-06-18 12:01:56 GMT 52.448822 -0.739365 32,000 320 508 0
2019-06-18 12:01:53 GMT 52.441143 -0.728707 32,000 320 508 0
2019-06-18 12:01:50 GMT 52.436859 -0.722822 32,000 320 508 0
2019-06-18 12:01:47 GMT 52.431644 -0.715602 32,000 320 508 0
2019-06-18 12:01:43 GMT 52.423279 -0.703964 32,000 320 508 0
2019-06-18 12:01:40 GMT 52.418797 -0.697789 32,000 320 508 0
2019-06-18 12:01:37 GMT 52.413071 -0.689863 32,000 320 508 0
2019-06-18 12:01:34 GMT 52.402679 -0.675507 32,000 320 508 0
2019-06-18 12:01:31 GMT 52.402679 -0.675507 32,000 320 508 0
2019-06-18 12:01:28 GMT 52.398731 -0.670009 32,000 320 506 0
2019-06-18 12:01:25 GMT 52.393387 -0.662613 32,000 320 507 0
2019-06-18 12:01:22 GMT 52.387981 -0.655178 32,000 320 507 0
2019-06-18 12:01:19 GMT 52.380844 -0.645294 32,000 320 506 0
2019-06-18 12:01:16 GMT 52.378143 -0.641632 32,000 320 507 0
2019-06-18 12:01:13 GMT 52.370087 -0.630493 32,000 320 507 0
2019-06-18 12:01:10 GMT 52.365280 -0.623856 32,000 320 506 0
2019-06-18 12:01:07 GMT 52.360653 -0.617432 32,000 320 506 0
2019-06-18 12:01:04 GMT 52.355068 -0.609820 32,000 320 506 0
2019-06-18 12:01:01 GMT 52.348827 -0.601188 32,000 320 506 0
2019-06-18 12:00:58 GMT 52.338318 -0.586624 32,000 320 506 0
2019-06-18 12:00:55 GMT 52.338318 -0.586624 32,000 320 506 0
2019-06-18 12:00:52 GMT 52.332954 -0.579293 32,000 320 506 0
2019-06-18 12:00:49 GMT 52.327606 -0.571899 32,000 320 506 0
2019-06-18 12:00:46 GMT 52.322433 -0.564728 32,000 320 506 0
2019-06-18 12:00:43 GMT 52.316708 -0.556850 32,000 320 506 0
2019-06-18 12:00:40 GMT 52.311913 -0.550258 32,000 320 506 0
2019-06-18 12:00:36 GMT 52.303711 -0.538940 32,000 320 506 0
2019-06-18 12:00:33 GMT 52.300644 -0.534821 32,000 320 505 0
2019-06-18 12:00:30 GMT 52.295296 -0.527422 32,000 320 505 0
2019-06-18 12:00:27 GMT 52.289978 -0.520096 32,000 320 505 0
2019-06-18 12:00:23 GMT 52.282120 -0.509295 32,000 320 505 0
2019-06-18 12:00:20 GMT 52.275330 -0.500031 32,000 320 505 0
2019-06-18 12:00:17 GMT 52.270157 -0.492935 32,000 320 505 0
2019-06-18 12:00:14 GMT 52.265350 -0.486298 32,000 320 505 0
2019-06-18 12:00:11 GMT 52.259960 -0.479004 32,000 320 505 0
2019-06-18 12:00:05 GMT 52.249252 -0.464329 32,000 320 504 0
2019-06-18 12:00:02 GMT 52.239662 -0.451146 32,000 320 503 0
2019-06-18 11:59:59 GMT 52.239662 -0.451146 32,000 320 503 0
2019-06-18 11:59:56 GMT 52.233425 -0.442671 32,000 320 503 0
2019-06-18 11:59:53 GMT 52.227356 -0.434341 32,000 320 503 0
2019-06-18 11:59:50 GMT 52.223053 -0.428467 32,000 320 503 0
2019-06-18 11:59:47 GMT 52.212898 -0.414577 32,000 321 502 0
2019-06-18 11:59:41 GMT 52.201355 -0.398788 32,000 320 503 0
2019-06-18 11:59:38 GMT 52.201355 -0.398788 32,000 320 503 0
2019-06-18 11:59:35 GMT 52.196697 -0.392447 32,000 320 503 0
2019-06-18 11:59:32 GMT 52.189590 -0.382767 32,000 320 503 0
2019-06-18 11:59:29 GMT 52.186203 -0.378113 32,000 320 503 0
2019-06-18 11:59:25 GMT 52.179798 -0.369376 32,000 321 503 0
2019-06-18 11:59:22 GMT 52.172150 -0.358963 32,000 321 502 0
2019-06-18 11:59:19 GMT 52.167183 -0.352112 32,000 321 502 0
2019-06-18 11:59:16 GMT 52.163086 -0.346540 32,000 321 502 0
2019-06-18 11:59:13 GMT 52.158104 -0.339791 32,000 321 502 0
2019-06-18 11:59:10 GMT 52.152054 -0.331497 32,000 321 502 0
2019-06-18 11:59:07 GMT 52.145645 -0.322800 32,000 321 502 0
2019-06-18 11:59:04 GMT 52.141022 -0.316485 32,000 321 503 0
2019-06-18 11:59:01 GMT 52.130722 -0.302429 32,000 321 503 0
2019-06-18 11:58:55 GMT 52.124493 -0.293963 32,000 321 503 0
2019-06-18 11:58:52 GMT 52.119873 -0.287628 32,000 321 503 0
2019-06-18 11:58:49 GMT 52.113647 -0.279160 32,000 321 503 0
2019-06-18 11:58:43 GMT 52.102055 -0.263436 32,000 321 503 0
2019-06-18 11:58:40 GMT 52.096561 -0.255903 32,000 321 503 0
2019-06-18 11:58:37 GMT 52.091908 -0.249625 32,000 321 503 0
2019-06-18 11:58:33 GMT 52.085716 -0.241150 32,000 321 502 0
2019-06-18 11:58:30 GMT 52.080002 -0.233459 32,000 321 502 0
2019-06-18 11:58:27 GMT 52.075752 -0.227652 32,000 321 502 0
2019-06-18 11:58:24 GMT 52.070587 -0.220668 32,000 321 502 0
2019-06-18 11:58:21 GMT 52.058990 -0.205002 32,000 321 502 0
2019-06-18 11:58:18 GMT 52.058990 -0.205002 32,000 321 502 0
2019-06-18 11:58:15 GMT 52.054012 -0.198225 32,000 321 502 0
2019-06-18 11:58:12 GMT 52.049217 -0.191711 32,000 321 502 0
2019-06-18 11:58:09 GMT 52.041733 -0.181580 32,000 321 502 0
2019-06-18 11:58:06 GMT 52.036415 -0.174369 32,000 321 502 0
2019-06-18 11:58:03 GMT 52.032833 -0.169582 32,000 321 502 0
2019-06-18 11:58:00 GMT 52.025711 -0.159930 32,000 321 502 0
2019-06-18 11:57:57 GMT 52.022873 -0.156097 32,000 321 502 0
2019-06-18 11:57:54 GMT 52.016121 -0.146981 32,000 321 502 0
2019-06-18 11:57:51 GMT 52.011658 -0.140991 32,000 321 502 0
2019-06-18 11:57:48 GMT 52.004150 -0.130844 32,000 321 502 0
2019-06-18 11:57:45 GMT 52.001129 -0.126814 32,000 321 502 0
2019-06-18 11:57:42 GMT 51.994904 -0.118408 32,000 321 502 0
2019-06-18 11:57:39 GMT 51.991333 -0.113602 32,000 321 502 0
2019-06-18 11:57:35 GMT 51.981579 -0.100446 32,000 321 502 0
2019-06-18 11:57:32 GMT 51.978180 -0.095895 32,000 321 501 0
2019-06-18 11:57:28 GMT 51.972153 -0.087738 32,000 321 501 0
2019-06-18 11:57:25 GMT 51.964828 -0.077896 32,000 321 500 0
2019-06-18 11:57:21 GMT 51.957733 -0.068359 32,000 321 500 0
2019-06-18 11:57:18 GMT 51.952744 -0.061646 32,000 321 500 0
2019-06-18 11:57:14 GMT 51.943176 -0.048676 32,000 321 500 0
2019-06-18 11:57:11 GMT 51.940659 -0.045319 32,000 321 500 0
2019-06-18 11:57:08 GMT 51.934093 -0.036490 32,000 321 500 0
2019-06-18 11:57:05 GMT 51.927902 -0.028172 32,000 321 500 0
2019-06-18 11:57:02 GMT 51.923435 -0.022208 32,000 321 500 0
2019-06-18 11:56:59 GMT 51.917618 -0.014282 32,000 321 499 0
2019-06-18 11:56:56 GMT 51.914200 -0.009766 32,000 321 499 0
2019-06-18 11:56:53 GMT 51.902527 0.005951 32,000 321 499 0
2019-06-18 11:56:50 GMT 51.902527 0.005951 32,000 321 499 0
2019-06-18 11:56:47 GMT 51.896988 0.013351 32,000 321 499 0
2019-06-18 11:56:44 GMT 51.891861 0.020191 32,000 321 499 0
2019-06-18 11:56:41 GMT 51.887264 0.026398 32,000 321 499 0
2019-06-18 11:56:38 GMT 51.882793 0.032349 32,000 321 499 0
2019-06-18 11:56:35 GMT 51.875702 0.041867 32,000 321 499 0
2019-06-18 11:56:32 GMT 51.870739 0.048523 32,000 321 499 0
2019-06-18 11:56:29 GMT 51.864685 0.056610 32,000 321 499 0
2019-06-18 11:56:26 GMT 51.859909 0.063023 32,000 321 499 0
2019-06-18 11:56:22 GMT 51.853886 0.071106 32,000 321 499 0
2019-06-18 11:56:19 GMT 51.843227 0.085297 32,000 321 497 0
2019-06-18 11:56:16 GMT 51.836987 0.093613 32,000 321 499 0
2019-06-18 11:56:13 GMT 51.836987 0.093613 32,000 321 498 0
2019-06-18 11:56:10 GMT 51.830978 0.101698 32,000 321 499 0
2019-06-18 11:56:07 GMT 51.822975 0.112381 32,000 321 499 0
2019-06-18 11:56:03 GMT 51.818710 0.118029 32,000 321 499 0
2019-06-18 11:56:00 GMT 51.814270 0.123978 32,000 321 498 0
2019-06-18 11:55:57 GMT 51.809326 0.130574 32,000 321 498 0
2019-06-18 11:55:54 GMT 51.802910 0.139160 32,000 321 497 0
2019-06-18 11:55:51 GMT 51.799187 0.144119 32,000 321 498 0
2019-06-18 11:55:48 GMT 51.788361 0.158559 32,000 321 498 0
2019-06-18 11:55:45 GMT 51.781448 0.167764 32,000 321 497 0
2019-06-18 11:55:42 GMT 51.781448 0.167764 32,000 321 498 0
2019-06-18 11:55:39 GMT 51.776840 0.173950 32,000 321 498 0
2019-06-18 11:55:36 GMT 51.768860 0.184541 32,000 321 498 0
2019-06-18 11:55:33 GMT 51.765701 0.188772 32,000 321 497 0
2019-06-18 11:55:30 GMT 51.761261 0.194710 32,000 321 497 0
2019-06-18 11:55:27 GMT 51.750122 0.209579 32,000 321 497 0
2019-06-18 11:55:24 GMT 51.750122 0.209579 32,000 321 497 0
2019-06-18 11:55:20 GMT 51.736679 0.227447 32,000 321 497 0
2019-06-18 11:55:17 GMT 51.736679 0.227447 32,000 321 497 0
2019-06-18 11:55:14 GMT 51.733109 0.232198 32,000 321 497 0
2019-06-18 11:55:11 GMT 51.726059 0.241625 32,000 321 497 0
2019-06-18 11:55:08 GMT 51.720749 0.248677 32,000 321 497 0
2019-06-18 11:55:05 GMT 51.716492 0.254319 32,000 321 497 0
2019-06-18 11:55:02 GMT 51.710266 0.262558 32,000 321 497 0
2019-06-18 11:54:59 GMT 51.706547 0.267487 32,000 321 497 0
2019-06-18 11:54:56 GMT 51.699287 0.277100 32,000 321 497 0
2019-06-18 11:54:53 GMT 51.695934 0.281601 32,000 321 497 0
2019-06-18 11:54:50 GMT 51.691139 0.287933 32,000 321 497 0
2019-06-18 11:54:47 GMT 51.685646 0.295181 32,000 321 497 0
2019-06-18 11:54:44 GMT 51.679642 0.303163 32,000 321 497 0
2019-06-18 11:54:41 GMT 51.669022 0.317267 32,000 321 497 0
2019-06-18 11:54:35 GMT 51.662796 0.325433 32,000 321 497 0
2019-06-18 11:54:32 GMT 51.653061 0.338364 32,000 321 497 0
2019-06-18 11:54:29 GMT 51.653061 0.338364 32,000 321 497 0
2019-06-18 11:54:26 GMT 51.646870 0.346527 32,000 321 497 0
2019-06-18 11:54:23 GMT 51.641190 0.354086 32,000 321 497 0
2019-06-18 11:54:20 GMT 51.632298 0.365753 32,000 321 497 0
2019-06-18 11:54:17 GMT 51.626106 0.373917 32,000 321 496 0
2019-06-18 11:54:14 GMT 51.626106 0.373917 32,000 321 497 0
2019-06-18 11:54:11 GMT 51.619869 0.382156 32,000 321 497 0
2019-06-18 11:54:08 GMT 51.614227 0.389643 32,000 321 496 0
2019-06-18 11:54:05 GMT 51.609951 0.395203 32,000 321 496 0
2019-06-18 11:54:02 GMT 51.603561 0.403673 32,000 321 496 0
2019-06-18 11:53:59 GMT 51.598801 0.409983 32,000 321 496 0
2019-06-18 11:53:56 GMT 51.593472 0.416946 32,000 321 496 0
2019-06-18 11:53:53 GMT 51.583374 0.430248 32,000 321 496 0
2019-06-18 11:53:50 GMT 51.577332 0.438191 32,000 321 496 0
2019-06-18 11:53:47 GMT 51.577332 0.438191 32,000 321 496 0
2019-06-18 11:53:44 GMT 51.572708 0.444260 32,000 321 496 0
2019-06-18 11:53:41 GMT 51.567589 0.451050 32,000 321 496 0
2019-06-18 11:53:38 GMT 51.562225 0.458011 32,000 321 496 0
2019-06-18 11:53:34 GMT 51.549992 0.474091 32,000 321 496 0
2019-06-18 11:53:31 GMT 51.549992 0.474091 32,000 321 496 0
2019-06-18 11:53:28 GMT 51.543594 0.482508 32,000 321 497 0
2019-06-18 11:53:25 GMT 51.537937 0.489960 32,000 321 497 0
2019-06-18 11:53:22 GMT 51.533142 0.496216 32,000 321 497 0
2019-06-18 11:53:19 GMT 51.528168 0.502773 32,000 321 496 0
2019-06-18 11:53:16 GMT 51.522480 0.510178 32,000 321 496 0
2019-06-18 11:53:13 GMT 51.513245 0.522296 32,000 321 496 0
2019-06-18 11:53:10 GMT 51.513245 0.522296 32,000 321 496 0
2019-06-18 11:53:07 GMT 51.507072 0.530472 32,000 321 495 0
2019-06-18 11:53:04 GMT 51.501205 0.538101 32,000 321 496 0
2019-06-18 11:53:01 GMT 51.496922 0.543671 32,000 321 496 0
2019-06-18 11:52:58 GMT 51.491802 0.550385 32,000 321 496 0
2019-06-18 11:52:55 GMT 51.485916 0.558076 32,000 321 496 0
2019-06-18 11:52:52 GMT 51.476349 0.570621 32,000 321 496 0
2019-06-18 11:52:49 GMT 51.476349 0.570621 32,000 321 496 0
2019-06-18 11:52:46 GMT 51.469643 0.579453 32,000 321 496 0
2019-06-18 11:52:43 GMT 51.464676 0.585913 32,000 321 494 0
2019-06-18 11:52:40 GMT 51.461124 0.590591 32,000 321 496 0
2019-06-18 11:52:37 GMT 51.453323 0.600759 32,000 321 496 0
2019-06-18 11:52:31 GMT 51.441788 0.615828 32,000 321 495 0
2019-06-18 11:52:28 GMT 51.439152 0.619278 32,000 321 495 0
2019-06-18 11:52:25 GMT 51.432217 0.628281 32,000 321 493 0
2019-06-18 11:52:22 GMT 51.428329 0.633421 32,000 321 495 0
2019-06-18 11:52:19 GMT 51.417179 0.647964 32,000 321 495 0
2019-06-18 11:52:16 GMT 51.417179 0.647964 32,000 321 494 0
2019-06-18 11:52:13 GMT 51.412197 0.654449 32,000 321 495 0
2019-06-18 11:52:10 GMT 51.405304 0.663411 32,000 321 494 0
2019-06-18 11:52:07 GMT 51.401047 0.668978 32,000 321 494 0
2019-06-18 11:52:04 GMT 51.395763 0.675888 32,000 321 494 0
2019-06-18 11:52:01 GMT 51.384979 0.689912 32,000 321 493 0
2019-06-18 11:51:58 GMT 51.384979 0.689912 32,000 321 493 0
2019-06-18 11:51:55 GMT 51.381226 0.694811 32,000 321 493 0
2019-06-18 11:51:52 GMT 51.372955 0.705566 32,000 321 493 0
2019-06-18 11:51:49 GMT 51.368683 0.711142 32,000 321 493 0
2019-06-18 11:51:46 GMT 51.363052 0.718491 32,000 321 493 0
2019-06-18 11:51:43 GMT 51.358612 0.724207 32,000 321 493 0
2019-06-18 11:51:40 GMT 51.353683 0.730667 32,000 321 493 0
2019-06-18 11:51:37 GMT 51.346939 0.739350 32,000 321 493 0
2019-06-18 11:51:34 GMT 51.343231 0.744175 32,000 321 493 0
2019-06-18 11:51:31 GMT 51.337948 0.751038 32,000 322 492 0
2019-06-18 11:51:28 GMT 51.332291 0.758428 32,000 321 492 0
2019-06-18 11:51:25 GMT 51.327335 0.764847 32,000 321 492 0
2019-06-18 11:51:22 GMT 51.322083 0.771715 32,000 321 492 0
2019-06-18 11:51:19 GMT 51.316765 0.778580 32,000 321 492 0
2019-06-18 11:51:16 GMT 51.311321 0.785675 32,000 321 492 0
2019-06-18 11:51:13 GMT 51.304596 0.794430 32,000 321 492 0
2019-06-18 11:51:10 GMT 51.301079 0.798950 32,000 321 492 0
2019-06-18 11:51:07 GMT 51.295631 0.806122 32,000 321 492 0
2019-06-18 11:51:04 GMT 51.289253 0.814362 32,000 321 492 0
2019-06-18 11:51:01 GMT 51.284866 0.820040 32,000 321 492 0
2019-06-18 11:50:58 GMT 51.278175 0.828781 32,000 321 492 0
2019-06-18 11:50:55 GMT 51.274658 0.833328 32,000 321 492 0
2019-06-18 11:50:52 GMT 51.269005 0.840607 32,000 321 492 0
2019-06-18 11:50:49 GMT 51.263882 0.847244 32,000 321 492 0
2019-06-18 11:50:46 GMT 51.258389 0.854340 32,000 321 492 0
2019-06-18 11:50:40 GMT 51.247822 0.868073 32,000 321 493 0
2019-06-18 11:50:36 GMT 51.240421 0.877686 32,000 321 493 0
2019-06-18 11:50:33 GMT 51.235840 0.883583 32,000 321 493 0
2019-06-18 11:50:30 GMT 51.229294 0.892045 32,000 322 492 0
2019-06-18 11:50:26 GMT 51.222031 0.901413 32,000 321 493 0
2019-06-18 11:50:23 GMT 51.215515 0.909882 32,000 321 492 0
2019-06-18 11:50:20 GMT 51.211464 0.915070 32,000 322 492 0
2019-06-18 11:50:16 GMT 51.204575 0.923996 32,000 322 492 0
2019-06-18 11:50:13 GMT 51.199631 0.930349 32,000 322 492 0
2019-06-18 11:50:10 GMT 51.194504 0.937030 32,000 322 492 0
2019-06-18 11:50:07 GMT 51.189377 0.943637 32,000 321 491 0
2019-06-18 11:50:03 GMT 51.180553 0.954971 32,000 321 491 0
2019-06-18 11:50:00 GMT 51.177017 0.959522 32,000 322 492 0
2019-06-18 11:49:57 GMT 51.171524 0.966574 32,000 321 491 0
2019-06-18 11:49:54 GMT 51.165344 0.974591 32,000 321 491 0
2019-06-18 11:49:51 GMT 51.160950 0.980233 32,000 321 491 0
2019-06-18 11:49:48 GMT 51.155975 0.986633 32,000 321 491 0
2019-06-18 11:49:44 GMT 51.148956 0.995747 32,000 321 491 0
2019-06-18 11:49:41 GMT 51.143639 1.002579 32,000 321 491 0
2019-06-18 11:49:38 GMT 51.136047 1.012301 32,000 321 491 0
2019-06-18 11:49:35 GMT 51.133396 1.015701 32,000 321 491 0
2019-06-18 11:49:32 GMT 51.126694 1.024399 32,000 321 491 0
2019-06-18 11:49:29 GMT 51.121574 1.030960 32,000 321 491 0
2019-06-18 11:49:26 GMT 51.114899 1.039618 32,000 321 491 0
2019-06-18 11:49:23 GMT 51.107620 1.048972 32,000 322 492 0
2019-06-18 11:49:17 GMT 51.101440 1.056914 32,000 322 492 0
2019-06-18 11:49:14 GMT 51.094761 1.065521 32,000 322 492 0
2019-06-18 11:49:11 GMT 51.090660 1.070786 32,000 322 493 64
2019-06-18 11:49:08 GMT 51.084518 1.078720 32,000 322 492 0
2019-06-18 11:49:05 GMT 51.078827 1.086013 32,000 322 492 0
2019-06-18 11:48:59 GMT 51.068207 1.099598 32,000 322 493 0
2019-06-18 11:48:55 GMT 51.062172 1.107330 32,000 322 493 0
2019-06-18 11:48:52 GMT 51.057220 1.113702 32,000 322 492 0
2019-06-18 11:48:49 GMT 51.051727 1.120754 32,000 322 493 64
2019-06-18 11:48:46 GMT 51.044815 1.129588 32,000 322 493 0
2019-06-18 11:48:43 GMT 51.041794 1.133373 32,000 322 493 0
2019-06-18 11:48:40 GMT 51.034149 1.143098 32,000 322 493 64
2019-06-18 11:48:37 GMT 51.029865 1.148529 32,000 322 493 0
2019-06-18 11:48:34 GMT 51.024536 1.155346 32,000 322 494 0
2019-06-18 11:48:30 GMT 51.017441 1.164402 32,000 322 494 960
2019-06-18 11:48:27 GMT 51.012779 1.170273 32,000 322 494 -64
2019-06-18 11:48:23 GMT 51.006409 1.178432 32,000 322 494 -64
2019-06-18 11:48:20 GMT 51.001049 1.185150 32,000 322 493 -64
2019-06-18 11:48:17 GMT 50.996254 1.191254 32,000 322 493 -128
2019-06-18 11:48:14 GMT 50.988190 1.201370 32,025 322 494 448
2019-06-18 11:48:11 GMT 50.983932 1.206789 32,025 322 494 64
2019-06-18 11:48:07 GMT 50.976608 1.216049 32,025 322 495 128
2019-06-18 11:48:04 GMT 50.970325 1.223907 31,975 322 494 640
2019-06-18 11:48:01 GMT 50.965302 1.230172 31,875 322 494 576
2019-06-18 11:47:58 GMT 50.959030 1.238040 31,925 322 494 960
2019-06-18 11:47:55 GMT 50.947952 1.251922 31,875 322 494 1024
2019-06-18 11:47:51 GMT 50.947952 1.251922 31,775 322 494 1216
2019-06-18 11:47:48 GMT 50.941833 1.259537 31,750 322 495 1472
2019-06-18 11:47:45 GMT 50.937149 1.265284 31,650 322 494 1408
2019-06-18 11:47:42 GMT 50.933395 1.270034 31,050 323 500 1536
2019-06-18 11:47:39 GMT 50.926712 1.278274 31,525 322 497 1536
2019-06-18 11:47:36 GMT 50.921307 1.285019 31,175 322 497 1536
2019-06-18 11:47:33 GMT 50.915718 1.291962 31,400 322 497 1472
2019-06-18 11:47:29 GMT 50.908493 1.300915 31,250 323 498 1536
2019-06-18 11:47:24 GMT 50.901241 1.309891 31,050 323 499 1536
2019-06-18 11:47:21 GMT 50.892860 1.320190 31,075 322 500 1536
2019-06-18 11:47:18 GMT 50.889744 1.324005 30,950 323 502 1408
2019-06-18 11:47:15 GMT 50.882668 1.332779 30,775 323 501 1408
2019-06-18 11:47:11 GMT 50.874619 1.342633 30,825 323 502 1408
2019-06-18 11:47:07 GMT 50.868942 1.349611 30,675 323 502 1280
2019-06-18 11:47:04 GMT 50.855991 1.365662 30,600 322 501 704
2019-06-18 11:47:00 GMT 50.855991 1.365662 30,600 321 499 768
2019-06-18 11:46:57 GMT 50.851593 1.371138 30,600 321 499 768
2019-06-18 11:46:54 GMT 50.844131 1.380417 30,525 322 501 704
2019-06-18 11:46:51 GMT 50.831451 1.396377 30,475 322 501 640
2019-06-18 11:46:47 GMT 50.831451 1.396377 30,150 319 495 704
2019-06-18 11:46:44 GMT 50.826756 1.402283 30,450 321 499 704
2019-06-18 11:46:36 GMT 50.811356 1.422581 30,300 319 497 768
2019-06-18 11:46:33 GMT 50.805954 1.430004 30,300 319 498 768
2019-06-18 11:46:30 GMT 50.800781 1.437149 30,225 319 496 704
2019-06-18 11:46:27 GMT 50.796341 1.443440 30,225 319 496 704
2019-06-18 11:46:23 GMT 50.789284 1.453247 30,175 319 496 704
2019-06-18 11:46:20 GMT 50.784988 1.459252 30,100 320 491 832
2019-06-18 11:46:14 GMT 50.774525 1.473846 30,075 319 493 768
2019-06-18 11:46:10 GMT 50.769012 1.481447 30,000 319 494 768
2019-06-18 11:46:07 GMT 50.762516 1.490479 29,975 319 493 768
2019-06-18 11:46:04 GMT 50.758930 1.495438 29,950 319 493 768
2019-06-18 11:46:01 GMT 50.751575 1.505661 29,900 319 493 896
2019-06-18 11:45:58 GMT 50.746593 1.512527 29,875 319 493 960
2019-06-18 11:45:55 GMT 50.741455 1.519602 29,800 319 492 960
2019-06-18 11:45:51 GMT 50.735458 1.527916 29,675 319 491 960
2019-06-18 11:45:48 GMT 50.729141 1.536601 29,425 321 490 832
2019-06-18 11:45:42 GMT 50.720078 1.549146 29,400 319 491 960
2019-06-18 11:45:39 GMT 50.713917 1.557617 29,550 319 491 896
2019-06-18 11:45:36 GMT 50.708652 1.564941 29,450 321 490 832
2019-06-18 11:45:29 GMT 50.696869 1.581140 28,975 325 503 448
2019-06-18 11:45:26 GMT 50.692360 1.587143 29,325 325 503 448
2019-06-18 11:45:22 GMT 50.681049 1.601486 29,300 323 491 896
2019-06-18 11:45:16 GMT 50.673889 1.610165 29,200 325 490 960
2019-06-18 11:45:10 GMT 50.662903 1.622724 29,150 325 491 960
2019-06-18 11:45:04 GMT 50.653954 1.632509 29,025 327 491 960
2019-06-18 11:45:00 GMT 50.644821 1.641878 28,950 329 491 1088
2019-06-18 11:44:57 GMT 50.632309 1.654110 28,900 331 491 1088
2019-06-18 11:44:53 GMT 50.632309 1.654110 28,850 329 491 1088
2019-06-18 11:44:50 GMT 50.624084 1.661610 28,750 331 491 1088
2019-06-18 11:44:43 GMT 50.612709 1.671407 28,600 334 491 896
2019-06-18 11:44:40 GMT 50.603439 1.678957 28,300 334 489 960
2019-06-18 11:44:37 GMT 50.599182 1.682281 28,500 334 491 896
2019-06-18 11:44:34 GMT 50.591064 1.688777 28,500 334 491 896
2019-06-18 11:44:29 GMT 50.582565 1.695508 28,450 334 490 960
2019-06-18 11:44:26 GMT 50.578308 1.698872 28,350 334 487 1088
2019-06-18 11:44:21 GMT 50.567787 1.707186 28,350 334 487 1088
2019-06-18 11:44:18 GMT 50.561325 1.712277 28,250 334 488 960
2019-06-18 11:44:15 GMT 50.556473 1.716108 28,150 334 488 960
2019-06-18 11:44:12 GMT 50.549633 1.721513 28,175 334 488 1024
2019-06-18 11:44:08 GMT 50.540131 1.728973 28,175 334 488 1024
2019-06-18 11:44:05 GMT 50.535107 1.732945 28,050 334 487 1088
2019-06-18 11:44:01 GMT 50.527473 1.738958 27,875 334 486 1088
2019-06-18 11:43:57 GMT 50.519440 1.745308 27,775 334 487 1088
2019-06-18 11:43:54 GMT 50.511414 1.751651 27,225 334 483 1280
2019-06-18 11:43:50 GMT 50.506386 1.755660 27,800 334 486 1088
2019-06-18 11:43:47 GMT 50.498749 1.761643 26,825 334 486 1152
2019-06-18 11:43:44 GMT 50.492744 1.766423 27,150 334 485 1088
2019-06-18 11:43:39 GMT 50.474945 1.780508 27,575 334 484 1024
2019-06-18 11:43:35 GMT 50.474945 1.780508 27,500 334 484 1088
2019-06-18 11:43:31 GMT 50.466751 1.786941 27,425 334 483 1088
2019-06-18 11:43:27 GMT 50.459564 1.792651 27,000 334 483 1152
2019-06-18 11:43:24 GMT 50.446609 1.802842 27,200 334 483 1280
2019-06-18 11:43:20 GMT 50.446609 1.802842 27,025 334 482 1280
2019-06-18 11:43:16 GMT 50.436417 1.810814 26,825 334 482 1280
2019-06-18 11:43:09 GMT 50.423264 1.821201 27,000 334 482 1280
2019-06-18 11:43:04 GMT 50.414108 1.828356 26,875 334 482 1280
2019-06-18 11:43:01 GMT 50.399414 1.839921 26,625 334 480 1216
2019-06-18 11:42:58 GMT 50.399414 1.839921 26,350 334 482 1152
2019-06-18 11:42:54 GMT 50.394241 1.844041 26,675 334 480 1152
2019-06-18 11:42:49 GMT 50.381718 1.853794 26,550 334 480 1344
2019-06-18 11:42:44 GMT 50.373367 1.860303 26,450 334 479 1536
2019-06-18 11:42:40 GMT 50.366264 1.865894 26,050 334 479 1280
2019-06-18 11:42:37 GMT 50.358906 1.871684 26,150 334 479 1536
2019-06-18 11:42:30 GMT 50.345215 1.882348 26,125 334 479 1280
2019-06-18 11:42:24 GMT 50.325996 1.897369 25,950 334 479 1280
2019-06-18 11:42:20 GMT 50.325996 1.897369 25,675 334 478 1152
2019-06-18 11:42:16 GMT 50.315918 1.905261 25,675 334 478 1152
2019-06-18 11:42:12 GMT 50.308182 1.911332 25,725 334 476 1216
2019-06-18 11:42:09 GMT 50.305233 1.913625 25,625 334 478 1152
2019-06-18 11:42:05 GMT 50.294571 1.921939 25,600 334 476 1152
2019-06-18 11:42:02 GMT 50.290054 1.925499 25,450 334 476 1280
2019-06-18 11:41:58 GMT 50.283188 1.930847 25,325 334 475 1280
2019-06-18 11:41:54 GMT 50.263733 1.946098 25,250 334 472 1344
2019-06-18 11:41:48 GMT 50.263733 1.946098 25,175 334 475 1280
2019-06-18 11:41:44 GMT 50.255516 1.952523 25,150 334 474 1280
2019-06-18 11:41:37 GMT 50.241409 1.963509 24,325 334 470 1408
2019-06-18 11:41:34 GMT 50.221481 1.979057 24,950 334 473 1344
2019-06-18 11:41:27 GMT 50.221481 1.979057 24,800 334 471 1344
2019-06-18 11:41:23 GMT 50.204914 1.991940 24,700 334 471 1344
2019-06-18 11:41:18 GMT 50.204914 1.991940 24,600 334 470 1344
2019-06-18 11:41:14 GMT 50.196953 1.998176 24,525 334 470 1344
2019-06-18 11:41:10 GMT 50.189941 2.003559 24,375 334 470 1344
2019-06-18 11:41:02 GMT 50.173782 2.016063 24,250 334 470 1408
2019-06-18 11:40:59 GMT 50.167419 2.021051 23,950 334 467 1344
2019-06-18 11:40:53 GMT 50.156342 2.029580 23,950 334 467 1344
2019-06-18 11:40:50 GMT 50.148193 2.035868 22,500 334 466 1280
2019-06-18 11:40:47 GMT 50.144535 2.038706 23,875 334 466 1280
2019-06-18 11:40:42 GMT 50.134899 2.046204 23,775 334 465 1280
2019-06-18 11:40:39 GMT 50.129105 2.050685 23,650 334 465 1280
2019-06-18 11:40:31 GMT 50.111622 2.064242 23,525 334 463 1280
2019-06-18 11:40:27 GMT 50.106407 2.068251 23,400 334 456 1536
2019-06-18 11:40:21 GMT 50.092072 2.079379 23,100 334 461 1280
2019-06-18 11:40:13 GMT 50.078293 2.090004 23,175 334 455 1408
2019-06-18 11:40:10 GMT 50.074493 2.092968 22,800 334 460 1280
2019-06-18 11:40:07 GMT 50.065907 2.099576 22,800 334 460 1280
2019-06-18 11:40:03 GMT 50.060413 2.103808 22,925 334 458 1408
2019-06-18 11:40:00 GMT 50.052269 2.110117 22,800 334 457 1472
2019-06-18 11:39:53 GMT 50.039154 2.120217 22,725 334 457 1472
2019-06-18 11:39:49 GMT 50.032196 2.125638 22,600 334 457 1536
2019-06-18 11:39:44 GMT 50.011395 2.141666 22,475 334 456 1536
2019-06-18 11:39:39 GMT 50.011395 2.141666 22,250 334 451 1152
2019-06-18 11:39:34 GMT 50.005005 2.146598 22,225 334 455 1344
2019-06-18 11:39:30 GMT 49.998047 2.151947 21,425 334 444 1472
2019-06-18 11:39:26 GMT 49.990913 2.157477 22,050 334 453 1088
2019-06-18 11:39:23 GMT 49.984348 2.162525 21,850 334 449 1536
2019-06-18 11:39:19 GMT 49.974480 2.170171 21,925 334 450 1344
2019-06-18 11:39:15 GMT 49.969620 2.173920 21,875 334 449 1536
2019-06-18 11:39:12 GMT 49.956619 2.183966 21,525 334 435 1472
2019-06-18 11:39:09 GMT 49.956619 2.183966 21,275 334 445 1472
2019-06-18 11:39:05 GMT 49.951763 2.187690 21,625 334 447 1536
2019-06-18 11:39:00 GMT 49.942154 2.195097 21,475 334 448 1536
2019-06-18 11:38:56 GMT 49.934910 2.200680 21,350 334 446 1472
2019-06-18 11:38:53 GMT 49.929565 2.204783 21,300 334 446 1472
2019-06-18 11:38:45 GMT 49.905396 2.223321 21,000 334 444 1408
2019-06-18 11:38:38 GMT 49.899170 2.228056 20,900 334 444 1408
2019-06-18 11:38:32 GMT 49.889057 2.235792 20,825 334 441 1664
2019-06-18 11:38:29 GMT 49.885574 2.238464 20,600 334 441 1728
2019-06-18 11:38:24 GMT 49.875320 2.246270 20,375 334 432 1536
2019-06-18 11:38:19 GMT 49.867081 2.252559 20,425 334 440 1728
2019-06-18 11:38:14 GMT 49.856506 2.260654 20,300 334 440 1664
2019-06-18 11:38:09 GMT 49.842831 2.271126 19,975 334 439 1536
2019-06-18 11:38:06 GMT 49.842831 2.271126 19,925 334 437 1536
2019-06-18 11:38:01 GMT 49.832840 2.278796 19,950 334 437 1472
2019-06-18 11:37:56 GMT 49.825424 2.284506 19,850 334 437 1472
2019-06-18 11:37:51 GMT 49.814575 2.292818 19,675 334 436 1536
2019-06-18 11:37:48 GMT 49.809677 2.296504 19,525 334 435 1472
2019-06-18 11:37:45 GMT 49.804096 2.300819 19,500 334 432 1472
2019-06-18 11:37:41 GMT 49.797070 2.306164 19,450 334 432 1536
2019-06-18 11:37:37 GMT 49.789902 2.311610 19,175 334 432 1600
2019-06-18 11:37:31 GMT 49.779331 2.319748 19,200 334 425 1792
2019-06-18 11:37:28 GMT 49.772736 2.324765 19,100 334 426 1856
2019-06-18 11:37:25 GMT 49.768478 2.328090 19,075 334 430 1536
2019-06-18 11:37:22 GMT 49.762939 2.332282 18,000 334 425 1792
2019-06-18 11:37:18 GMT 49.751774 2.340904 18,800 334 427 1664
2019-06-18 11:37:10 GMT 49.742752 2.347822 18,000 334 425 1792
2019-06-18 11:37:07 GMT 49.736252 2.352881 18,275 334 427 1856
2019-06-18 11:37:04 GMT 49.729523 2.358052 18,350 334 425 1856
2019-06-18 11:37:01 GMT 49.724075 2.362283 18,300 334 425 1792
2019-06-18 11:36:54 GMT 49.714050 2.370011 17,100 334 418 1472
2019-06-18 11:36:50 GMT 49.705994 2.376227 18,000 334 423 1792
2019-06-18 11:36:46 GMT 49.698120 2.382299 17,875 334 422 1856
2019-06-18 11:36:43 GMT 49.695648 2.384178 17,100 334 418 1472
2019-06-18 11:36:39 GMT 49.687271 2.390611 17,675 334 418 1472
2019-06-18 11:36:35 GMT 49.680130 2.396104 17,550 334 411 1728
2019-06-18 11:36:31 GMT 49.671749 2.402591 17,125 334 418 1472
2019-06-18 11:36:28 GMT 49.668446 2.405115 17,325 334 408 1856
2019-06-18 11:36:20 GMT 49.655598 2.415062 17,100 334 418 1472
2019-06-18 11:36:15 GMT 49.646622 2.422052 17,000 334 417 1408
2019-06-18 11:36:09 GMT 49.624825 2.438816 16,775 334 408 1856
2019-06-18 11:36:03 GMT 49.624825 2.438816 16,675 334 411 1664
2019-06-18 11:35:58 GMT 49.617004 2.444892 15,000 334 405 2112
2019-06-18 11:35:53 GMT 49.605789 2.453493 16,350 334 409 1920
2019-06-18 11:35:46 GMT 49.594799 2.461903 15,775 334 406 1856
2019-06-18 11:35:42 GMT 49.587864 2.467099 16,000 334 406 1856
2019-06-18 11:35:38 GMT 49.582123 2.471490 15,000 334 405 2112
2019-06-18 11:35:33 GMT 49.573059 2.478308 15,700 334 405 2304
2019-06-18 11:35:28 GMT 49.565796 2.483727 15,425 335 407 2560
2019-06-18 11:35:24 GMT 49.559418 2.488548 15,050 339 405 0
2019-06-18 11:35:20 GMT 49.552139 2.493896 15,050 339 405 0
2019-06-18 11:35:17 GMT 49.546200 2.498276 15,025 335 406 2688
2019-06-18 11:35:11 GMT 49.537212 2.504883 14,775 335 406 2624
2019-06-18 11:35:06 GMT 49.520828 2.516520 14,500 336 407 2432
2019-06-18 11:35:01 GMT 49.520828 2.516520 14,400 336 407 2496
2019-06-18 11:34:56 GMT 49.511902 2.522736 14,175 336 407 2496
2019-06-18 11:34:53 GMT 49.506069 2.526781 14,000 337 407 2368
2019-06-18 11:34:46 GMT 49.494663 2.534427 13,725 338 405 2368
2019-06-18 11:34:42 GMT 49.486893 2.539549 13,600 338 405 2304
2019-06-18 11:34:38 GMT 49.480839 2.543483 13,475 338 406 2304
2019-06-18 11:34:31 GMT 49.468735 2.551204 13,125 340 377 1088
2019-06-18 11:34:23 GMT 49.455688 2.559236 12,825 339 405 2368
2019-06-18 11:34:20 GMT 49.450069 2.562561 12,300 340 403 2176
2019-06-18 11:34:11 GMT 49.434723 2.571451 12,425 340 403 2112
2019-06-18 11:34:08 GMT 49.421997 2.578751 12,200 340 401 1920
2019-06-18 11:34:01 GMT 49.416138 2.582139 11,225 340 398 2048
2019-06-18 11:33:56 GMT 49.407146 2.587280 11,925 340 397 2112
2019-06-18 11:33:50 GMT 49.397003 2.593055 11,700 340 395 2240
2019-06-18 11:33:47 GMT 49.393414 2.595086 11,225 340 393 2112
2019-06-18 11:33:44 GMT 49.386570 2.598989 11,500 340 393 2048
2019-06-18 11:33:39 GMT 49.378563 2.603543 11,350 340 392 1920
2019-06-18 11:33:35 GMT 49.372467 2.606999 11,225 340 391 1792
2019-06-18 11:33:30 GMT 49.363037 2.612352 11,100 340 386 1216
2019-06-18 11:33:25 GMT 49.353195 2.617915 11,000 340 382 1024
2019-06-18 11:33:21 GMT 49.347748 2.621014 10,925 340 378 1024
2019-06-18 11:33:17 GMT 49.342487 2.623998 10,850 340 375 1088
2019-06-18 11:33:12 GMT 49.333603 2.629113 10,775 340 372 1152
2019-06-18 11:33:08 GMT 49.322746 2.635273 10,650 340 363 1216
2019-06-18 11:33:05 GMT 49.322746 2.635273 10,650 340 365 1216
2019-06-18 11:33:02 GMT 49.317993 2.637916 10,575 340 362 1216
2019-06-18 11:32:57 GMT 49.310760 2.642001 10,450 341 354 1344
2019-06-18 11:32:51 GMT 49.301331 2.647212 10,350 340 353 1344
2019-06-18 11:32:44 GMT 49.289742 2.653704 10,200 341 347 1408
2019-06-18 11:32:41 GMT 49.285217 2.656156 10,125 340 344 1344
2019-06-18 11:32:34 GMT 49.275421 2.661649 10,000 340 338 512
2019-06-18 11:32:31 GMT 49.269104 2.665171 10,000 341 331 -128
2019-06-18 11:32:23 GMT 49.258850 2.670875 10,025 340 321 -192
2019-06-18 11:32:13 GMT 49.246170 2.677917 10,025 340 306 64
2019-06-18 11:32:10 GMT 49.235508 2.683917 10,000 340 301 384
2019-06-18 11:32:02 GMT 49.231041 2.686446 10,000 340 302 192
2019-06-18 11:31:59 GMT 49.227356 2.688481 9,975 340 300 512
2019-06-18 11:31:52 GMT 49.216797 2.694397 9,875 340 299 896
2019-06-18 11:31:49 GMT 49.213303 2.696348 9,825 340 298 1024
2019-06-18 11:31:41 GMT 49.198654 2.704679 9,600 340 294 1536
2019-06-18 11:31:33 GMT 49.193298 2.707707 9,450 340 292 2112
2019-06-18 11:31:30 GMT 49.188259 2.710660 9,275 340 291 2240
2019-06-18 11:31:27 GMT 49.185093 2.712467 9,025 340 291 2240
2019-06-18 11:31:23 GMT 49.181213 2.714679 9,050 340 290 2304
2019-06-18 11:31:20 GMT 49.177048 2.717144 8,925 339 289 2304
2019-06-18 11:31:17 GMT 49.172569 2.719767 8,825 339 289 2368
2019-06-18 11:31:09 GMT 49.163586 2.725115 8,350 339 288 2432
2019-06-18 11:31:05 GMT 49.153473 2.731229 8,275 338 287 2432
2019-06-18 11:31:01 GMT 49.153473 2.731229 8,200 339 286 2432
2019-06-18 11:30:56 GMT 49.148037 2.734584 7,600 338 285 2560
2019-06-18 11:30:53 GMT 49.144264 2.736897 7,900 338 286 2432
2019-06-18 11:30:48 GMT 49.129974 2.745932 7,500 338 285 2496
2019-06-18 11:30:43 GMT 49.129974 2.745932 7,550 338 284 2560
2019-06-18 11:30:37 GMT 49.121269 2.751569 7,100 85 199 1920
2019-06-18 11:30:30 GMT 49.116287 2.754749 6,825 338 283 2560
2019-06-18 11:30:27 GMT 49.111355 2.757930 6,750 338 283 2560
2019-06-18 11:30:20 GMT 49.102650 2.763423 6,475 338 282 2560
2019-06-18 11:30:15 GMT 49.096710 2.767146 6,250 338 282 2496
2019-06-18 11:30:09 GMT 49.085266 2.773766 5,925 340 282 2688
2019-06-18 11:30:05 GMT 49.085266 2.773766 5,650 342 282 2688
2019-06-18 11:29:57 GMT 49.074764 2.778385 5,425 352 282 2688
2019-06-18 11:29:54 GMT 49.071579 2.779118 5,125 2 283 2752
2019-06-18 11:29:44 GMT 49.057617 2.777358 4,825 17 283 2368
2019-06-18 11:29:41 GMT 49.055260 2.776144 4,800 24 282 2176
2019-06-18 11:29:34 GMT 49.047020 2.769422 4,475 37 278 1792
2019-06-18 11:29:29 GMT 49.042465 2.763695 4,425 46 275 1472
2019-06-18 11:29:23 GMT 49.037430 2.754027 4,175 76 251 832
2019-06-18 11:29:17 GMT 49.034317 2.743835 4,225 75 253 896
2019-06-18 11:29:11 GMT 49.032494 2.732705 4,125 81 245 704
2019-06-18 11:29:08 GMT 49.032028 2.727567 4,100 84 238 896
2019-06-18 11:29:02 GMT 49.031471 2.718899 3,975 85 230 832
2019-06-18 11:28:58 GMT 49.031097 2.711888 3,950 85 226 704
2019-06-18 11:28:51 GMT 49.030540 2.701480 3,875 85 219 640
2019-06-18 11:28:47 GMT 49.030197 2.695946 3,850 84 210 832
2019-06-18 11:28:44 GMT 49.029842 2.689843 3,800 84 210 832
2019-06-18 11:28:39 GMT 49.029373 2.681720 3,700 85 202 1152
2019-06-18 11:28:35 GMT 49.029144 2.677412 3,525 85 198 1920
2019-06-18 11:28:31 GMT 49.028816 2.671123 3,475 85 199 1920
2019-06-18 11:28:28 GMT 49.028549 2.666368 3,250 85 198 1920
2019-06-18 11:28:21 GMT 49.028091 2.658058 3,075 85 197 1856
2019-06-18 11:28:17 GMT 49.027607 2.649584 3,025 84 195 1664
2019-06-18 11:28:14 GMT 49.027512 2.648283 3,000 84 194 1664
2019-06-18 11:28:09 GMT 49.027096 2.641272 2,850 85 191 1600
We lost coverage of the aircraft here for a total of 194 minutes
2019-06-18 08:14:28 GMT 49.019806 2.498474 550 85 158 -832
2019-06-18 08:14:25 GMT 49.019646 2.495125 600 85 157 -832
2019-06-18 08:14:21 GMT 49.019394 2.490939 650 85 157 -832
2019-06-18 08:14:13 GMT 49.018902 2.482260 750 84 157 -768
2019-06-18 08:14:04 GMT 49.018345 2.471779 875 85 157 -832
2019-06-18 08:13:53 GMT 49.017700 2.460515 1,050 85 158 -768
2019-06-18 08:13:43 GMT 49.017105 2.448895 1,175 85 158 -768
2019-06-18 08:13:32 GMT 49.016510 2.437204 1,425 85 158 -832
2019-06-18 08:13:27 GMT 49.016201 2.430364 1,625 84 157 -768
2019-06-18 08:13:20 GMT 49.015869 2.424035 1,500 85 157 -768
2019-06-18 08:13:11 GMT 49.014771 2.405865 1,750 84 158 -832
2019-06-18 08:13:04 GMT 49.014771 2.405865 1,725 85 168 -896
2019-06-18 08:12:59 GMT 49.014385 2.399501 1,775 84 160 -832
2019-06-18 08:12:53 GMT 49.014107 2.393791 1,875 85 167 -832
2019-06-18 08:12:50 GMT 49.013874 2.389671 1,900 85 168 -896
2019-06-18 08:12:44 GMT 49.013550 2.381720 2,000 84 184 -1152
2019-06-18 08:12:37 GMT 49.013176 2.374348 2,075 85 181 -1024
2019-06-18 08:12:34 GMT 49.012524 2.362639 2,200 84 184 -1152
2019-06-18 08:12:29 GMT 49.012524 2.362639 2,275 84 187 -1088
2019-06-18 08:12:23 GMT 49.012058 2.355917 2,350 84 187 -1152
2019-06-18 08:12:17 GMT 49.011593 2.348544 2,500 85 186 -1024
2019-06-18 08:12:14 GMT 49.011292 2.343046 2,575 85 185 -768
2019-06-18 08:12:10 GMT 49.011063 2.338468 2,575 85 186 -704
2019-06-18 08:12:07 GMT 49.010880 2.334947 2,625 85 187 -576
2019-06-18 08:12:02 GMT 49.010567 2.328668 2,650 85 188 -256
2019-06-18 08:11:57 GMT 49.010242 2.322018 2,975 85 206 -1664
2019-06-18 08:11:52 GMT 49.009872 2.314805 2,750 85 196 -1216
2019-06-18 08:11:48 GMT 49.009590 2.309008 2,800 85 202 -1216
2019-06-18 08:11:45 GMT 49.009415 2.305509 2,850 85 201 -1216
2019-06-18 08:11:42 GMT 49.009140 2.300791 3,100 85 208 -1920
2019-06-18 08:11:39 GMT 49.008911 2.296354 3,100 85 208 -1920
2019-06-18 08:11:36 GMT 49.008591 2.290649 3,150 85 209 -1920
2019-06-18 08:11:32 GMT 49.008286 2.284506 3,350 85 210 -1728
2019-06-18 08:11:28 GMT 49.008057 2.279013 3,375 87 211 -1408
2019-06-18 08:11:23 GMT 49.007812 2.273043 3,475 87 211 -1344
2019-06-18 08:11:19 GMT 49.007683 2.266653 3,550 88 214 -832
2019-06-18 08:11:14 GMT 49.007492 2.259451 3,625 86 216 -960
2019-06-18 08:11:11 GMT 49.007263 2.253354 3,700 83 217 -1024
2019-06-18 08:11:07 GMT 49.006989 2.248817 3,725 84 217 -1088
2019-06-18 08:11:04 GMT 49.006611 2.243307 3,800 82 217 -960
2019-06-18 08:11:00 GMT 49.005959 2.236368 3,900 78 218 -960
2019-06-18 08:10:56 GMT 49.005543 2.232754 3,900 76 216 -576
2019-06-18 08:10:52 GMT 49.004562 2.226032 3,975 76 216 -192
2019-06-18 08:10:49 GMT 49.003601 2.219802 4,000 76 216 0
2019-06-18 08:10:40 GMT 49.001862 2.207818 3,975 78 219 -128
2019-06-18 08:10:37 GMT 49.001266 2.202688 4,000 80 219 64
2019-06-18 08:10:31 GMT 49.000561 2.194447 3,975 86 221 128
2019-06-18 08:10:26 GMT 49.000534 2.185505 3,975 113 235 0
2019-06-18 08:10:19 GMT 49.001770 2.175504 3,950 107 232 -192
2019-06-18 08:10:16 GMT 49.002869 2.170363 3,975 110 234 -64
2019-06-18 08:10:10 GMT 49.006622 2.158250 4,000 120 234 -128
2019-06-18 08:10:04 GMT 49.009415 2.151419 3,975 122 235 0
2019-06-18 08:09:59 GMT 49.011497 2.146382 3,975 122 236 -64
2019-06-18 08:09:56 GMT 49.013397 2.141911 3,975 122 236 -64
2019-06-18 08:09:53 GMT 49.015457 2.136982 3,975 122 237 -128
2019-06-18 08:09:46 GMT 49.019211 2.128179 4,000 123 236 128
2019-06-18 08:09:41 GMT 49.022999 2.119277 3,975 123 238 64
2019-06-18 08:09:38 GMT 49.024628 2.115519 3,975 123 238 -64
2019-06-18 08:09:35 GMT 49.029602 2.104164 3,975 123 236 256
2019-06-18 08:09:29 GMT 49.029602 2.104164 3,975 123 236 128
2019-06-18 08:09:25 GMT 49.032124 2.098316 3,975 123 234 -64
2019-06-18 08:09:18 GMT 49.036358 2.088414 3,975 122 232 -64
2019-06-18 08:09:15 GMT 49.038483 2.083459 3,975 122 230 0
2019-06-18 08:09:05 GMT 49.044319 2.069694 3,975 123 231 -128
2019-06-18 08:09:01 GMT 49.045994 2.065719 3,975 123 231 -64
2019-06-18 08:08:55 GMT 49.049393 2.057840 3,975 123 231 -64
2019-06-18 08:08:43 GMT 49.056095 2.042156 3,975 122 231 -192
2019-06-18 08:08:39 GMT 49.058426 2.036663 4,000 122 231 -64
2019-06-18 08:08:35 GMT 49.061508 2.029231 4,000 122 231 64
2019-06-18 08:08:32 GMT 49.062569 2.026761 4,000 122 231 64
2019-06-18 08:08:29 GMT 49.065498 2.019750 3,975 125 231 -128
2019-06-18 08:08:22 GMT 49.068478 2.012956 4,000 124 232 0
2019-06-18 08:08:12 GMT 49.074966 1.998948 3,975 125 231 -128
2019-06-18 08:08:00 GMT 49.082260 1.984695 4,000 131 230 0
2019-06-18 08:07:50 GMT 49.093918 1.971623 3,975 156 229 192
2019-06-18 08:07:41 GMT 49.099857 1.968577 3,950 167 230 192
2019-06-18 08:07:37 GMT 49.104996 1.967116 3,950 172 231 -192
2019-06-18 08:07:31 GMT 49.110329 1.966191 3,975 173 234 -64
2019-06-18 08:07:26 GMT 49.116150 1.965324 3,975 175 236 -192
2019-06-18 08:07:18 GMT 49.124176 1.964370 4,000 175 238 -64
2019-06-18 08:07:15 GMT 49.130173 1.963736 4,000 175 243 -192
2019-06-18 08:07:08 GMT 49.136074 1.963083 4,000 175 253 0
2019-06-18 08:07:05 GMT 49.138958 1.962722 4,000 175 251 0
2019-06-18 08:07:02 GMT 49.142590 1.962288 4,000 175 255 0
2019-06-18 08:06:56 GMT 49.150410 1.961421 4,050 175 268 -2432
2019-06-18 08:06:52 GMT 49.156044 1.960843 4,025 175 270 -384
2019-06-18 08:06:45 GMT 49.170776 1.959158 4,150 175 273 -832
2019-06-18 08:06:40 GMT 49.170776 1.959158 4,200 175 274 -1216
2019-06-18 08:06:35 GMT 49.176727 1.958454 4,325 175 273 -1856
2019-06-18 08:06:30 GMT 49.185139 1.957373 4,600 175 267 -2368
2019-06-18 08:06:24 GMT 49.189842 1.956723 4,725 174 268 -2560
2019-06-18 08:06:21 GMT 49.195148 1.956000 4,900 174 268 -2496
2019-06-18 08:06:16 GMT 49.201431 1.955205 5,125 175 268 -2432
2019-06-18 08:06:13 GMT 49.208267 1.954299 5,800 173 274 -2624
2019-06-18 08:06:10 GMT 49.208267 1.954299 6,975 173 274 -2624
2019-06-18 08:06:04 GMT 49.216099 1.953181 5,525 174 271 -2496
2019-06-18 08:06:00 GMT 49.228638 1.951411 5,850 174 272 -2496
2019-06-18 08:05:53 GMT 49.228638 1.951411 6,025 174 272 -2496
2019-06-18 08:05:49 GMT 49.235046 1.950496 6,250 174 273 -2560
2019-06-18 08:05:42 GMT 49.244110 1.949087 6,425 173 274 -2560
2019-06-18 08:05:38 GMT 49.248642 1.948313 6,800 173 274 -2560
2019-06-18 08:05:31 GMT 49.255943 1.947038 7,125 172 277 -2240
2019-06-18 08:05:28 GMT 49.262421 1.945848 7,875 172 279 -2176
2019-06-18 08:05:23 GMT 49.270657 1.944291 9,850 172 277 -2240
2019-06-18 08:05:17 GMT 49.275742 1.943312 7,875 172 279 -2176
2019-06-18 08:05:10 GMT 49.283504 1.941833 7,775 172 278 -2176
2019-06-18 08:05:05 GMT 49.294769 1.939665 8,725 172 281 -2048
2019-06-18 08:05:02 GMT 49.294769 1.939665 8,100 172 279 -2176
2019-06-18 08:04:58 GMT 49.297623 1.939157 8,175 172 280 -2112
2019-06-18 08:04:55 GMT 49.303116 1.938101 8,325 172 281 -2048
2019-06-18 08:04:51 GMT 49.308563 1.937045 8,475 172 281 -2112
2019-06-18 08:04:43 GMT 49.317951 1.935256 8,675 173 281 -2240
2019-06-18 08:04:39 GMT 49.322617 1.934439 8,875 173 280 -2240
2019-06-18 08:04:33 GMT 49.331268 1.932943 9,100 173 280 -1984
2019-06-18 08:04:30 GMT 49.333965 1.932437 9,250 173 282 -1408
2019-06-18 08:04:27 GMT 49.338638 1.931692 9,250 174 282 -1408
2019-06-18 08:04:24 GMT 49.343674 1.930918 9,350 174 282 -1472
2019-06-18 08:04:20 GMT 49.347702 1.930284 9,425 189 285 64
2019-06-18 08:04:16 GMT 49.353565 1.929474 9,675 178 283 -1408
2019-06-18 08:04:13 GMT 49.357498 1.929016 9,600 176 282 -1408
2019-06-18 08:04:08 GMT 49.362579 1.928594 9,850 189 283 -704
2019-06-18 08:04:03 GMT 49.371185 1.928664 9,825 185 282 -1408
2019-06-18 08:04:00 GMT 49.374710 1.929016 9,900 187 281 -1344
2019-06-18 08:03:52 GMT 49.386105 1.931498 10,000 189 283 -64
2019-06-18 08:03:48 GMT 49.388947 1.932185 10,000 189 283 0
2019-06-18 08:03:42 GMT 49.396439 1.934027 10,000 190 283 0
2019-06-18 08:03:39 GMT 49.402397 1.935473 10,000 190 282 0
2019-06-18 08:03:31 GMT 49.410278 1.937397 10,000 189 282 0
2019-06-18 08:03:28 GMT 49.414921 1.938509 10,000 189 282 0
2019-06-18 08:03:24 GMT 49.420975 1.940027 10,000 189 283 -64
2019-06-18 08:03:17 GMT 49.428513 1.941833 10,000 189 284 0
2019-06-18 08:03:14 GMT 49.432518 1.942799 10,025 189 284 64
2019-06-18 08:03:09 GMT 49.439713 1.944508 10,000 190 287 0
2019-06-18 08:03:06 GMT 49.444435 1.945694 10,000 190 322 -192
2019-06-18 08:03:01 GMT 49.450562 1.947182 10,025 189 295 -64
2019-06-18 08:02:58 GMT 49.459938 1.949479 10,025 190 298 -64
2019-06-18 08:02:54 GMT 49.459938 1.949479 10,025 190 322 -192
2019-06-18 08:02:51 GMT 49.464340 1.950579 10,075 190 365 -1856
2019-06-18 08:02:46 GMT 49.471111 1.952226 10,075 190 365 -1856
2019-06-18 08:02:42 GMT 49.475998 1.953488 10,050 190 322 -192
2019-06-18 08:02:38 GMT 49.483398 1.955344 10,050 190 326 -192
2019-06-18 08:02:33 GMT 49.490894 1.957200 10,075 190 345 -384
2019-06-18 08:02:27 GMT 49.498856 1.959180 10,075 190 340 -256
2019-06-18 08:02:24 GMT 49.509701 1.961950 10,100 190 345 -384
2019-06-18 08:02:20 GMT 49.509701 1.961950 10,125 190 351 -512
2019-06-18 08:02:17 GMT 49.516296 1.963662 10,175 190 359 -1024
2019-06-18 08:02:10 GMT 49.526459 1.966191 10,400 189 367 -2624
2019-06-18 08:02:04 GMT 49.538330 1.969151 10,550 190 367 -2304
2019-06-18 08:02:01 GMT 49.542522 1.970190 10,650 189 367 -2624
2019-06-18 08:01:56 GMT 49.552574 1.972566 10,950 189 364 -3008
2019-06-18 08:01:53 GMT 49.554382 1.973058 11,125 189 364 -3328
2019-06-18 08:01:50 GMT 49.560070 1.974421 11,175 189 364 -3328
2019-06-18 08:01:46 GMT 49.566879 1.976021 11,400 189 365 -3456
2019-06-18 08:01:43 GMT 49.571732 1.977250 11,550 189 365 -3328
2019-06-18 08:01:39 GMT 49.578232 1.978768 11,775 189 365 -3328
2019-06-18 08:01:35 GMT 49.584732 1.980358 11,975 190 366 -3264
2019-06-18 08:01:32 GMT 49.589443 1.981548 12,125 190 367 -3264
2019-06-18 08:01:29 GMT 49.596989 1.983403 12,375 190 367 -3264
2019-06-18 08:01:23 GMT 49.605515 1.985490 12,700 190 367 -3264
2019-06-18 08:01:19 GMT 49.612442 1.987263 15,600 189 369 -2944
2019-06-18 08:01:11 GMT 49.625198 1.990455 13,275 190 368 -3200
2019-06-18 08:01:01 GMT 49.642410 1.994741 14,150 189 369 -3136
2019-06-18 08:00:56 GMT 49.650513 1.996765 14,000 189 369 -3200
2019-06-18 08:00:50 GMT 49.659943 1.999006 14,350 189 369 -2944
2019-06-18 08:00:41 GMT 49.676193 2.002547 14,850 188 372 -2368
2019-06-18 08:00:38 GMT 49.681137 2.003559 14,900 188 373 -2240
2019-06-18 08:00:31 GMT 49.693130 2.005945 15,225 188 376 -1984
2019-06-18 08:00:28 GMT 49.703686 2.008048 15,350 188 381 -2432
2019-06-18 08:00:20 GMT 49.719818 2.011221 15,600 188 379 -2240
2019-06-18 08:00:16 GMT 49.719818 2.011221 15,675 188 380 -2304
2019-06-18 08:00:10 GMT 49.730301 2.013317 15,950 188 381 -2432
2019-06-18 08:00:07 GMT 49.735016 2.014284 16,125 188 381 -2368
2019-06-18 08:00:00 GMT 49.749664 2.017292 16,375 188 381 -2240
2019-06-18 07:59:57 GMT 49.754242 2.018232 16,900 188 385 -1664
2019-06-18 07:59:52 GMT 49.762619 2.019967 16,650 188 382 -1920
2019-06-18 07:59:47 GMT 49.769276 2.021336 16,725 188 383 -1792
2019-06-18 07:59:43 GMT 49.776672 2.022785 16,900 188 384 -1728
2019-06-18 07:59:40 GMT 49.782265 2.023934 16,975 188 384 -1728
2019-06-18 07:59:36 GMT 49.788803 2.025315 17,475 188 387 -1664
2019-06-18 07:59:32 GMT 49.794834 2.026532 17,175 188 388 -1728
2019-06-18 07:59:27 GMT 49.805634 2.028685 17,350 188 388 -1728
2019-06-18 07:59:24 GMT 49.809357 2.029427 17,475 188 390 -1984
2019-06-18 07:59:21 GMT 49.817413 2.031060 17,550 188 389 -1856
2019-06-18 07:59:18 GMT 49.822403 2.032037 17,700 188 390 -1984
2019-06-18 07:59:14 GMT 49.828812 2.033338 17,750 188 390 -1984
2019-06-18 07:59:09 GMT 49.836502 2.034856 17,900 188 391 -2048
2019-06-18 07:59:06 GMT 49.842598 2.036034 18,050 188 390 -2048
2019-06-18 07:59:03 GMT 49.847809 2.036999 18,100 188 390 -2048
2019-06-18 07:58:57 GMT 49.859116 2.039120 18,325 187 391 -2048
2019-06-18 07:58:53 GMT 49.865570 2.040277 18,450 187 391 -1984
2019-06-18 07:58:48 GMT 49.875137 2.041972 18,600 187 394 -1600
2019-06-18 07:58:43 GMT 49.883099 2.043383 18,725 187 395 -1600
2019-06-18 07:58:38 GMT 49.891941 2.045016 18,875 187 395 -1600
2019-06-18 07:58:35 GMT 49.898319 2.046129 18,950 187 398 -1536
2019-06-18 07:58:31 GMT 49.905254 2.047317 19,050 187 400 -1728
2019-06-18 07:58:28 GMT 49.910934 2.048356 19,150 187 398 -1600
2019-06-18 07:58:21 GMT 49.925972 2.051029 19,425 188 399 -2368
2019-06-18 07:58:17 GMT 49.930580 2.051919 19,775 188 401 -1472
2019-06-18 07:58:10 GMT 49.943298 2.054227 19,700 187 400 -2560
2019-06-18 07:58:05 GMT 49.960606 2.057487 20,025 188 401 -2560
2019-06-18 07:58:01 GMT 49.960606 2.057487 20,100 188 400 -2368
2019-06-18 07:57:57 GMT 49.978592 2.060948 20,250 188 400 -2368
2019-06-18 07:57:51 GMT 49.978592 2.060948 20,425 188 399 -2432
2019-06-18 07:57:48 GMT 49.983902 2.061960 20,675 188 399 -2240
2019-06-18 07:57:45 GMT 49.988846 2.062972 20,700 188 399 -2432
2019-06-18 07:57:41 GMT 49.995987 2.064346 20,850 188 399 -2304
2019-06-18 07:57:38 GMT 50.002167 2.065574 21,300 189 391 -2560
2019-06-18 07:57:35 GMT 50.008575 2.066875 21,150 188 388 -1600
2019-06-18 07:57:30 GMT 50.017353 2.068696 21,225 188 400 -1536
2019-06-18 07:57:22 GMT 50.033691 2.072036 21,500 189 393 -2688
2019-06-18 07:57:19 GMT 50.037186 2.072730 25,725 188 399 -2048
2019-06-18 07:57:15 GMT 50.046204 2.074609 21,850 189 396 -2624
2019-06-18 07:57:09 GMT 50.055340 2.076639 21,850 189 391 -2560
2019-06-18 07:57:06 GMT 50.060806 2.077789 25,625 189 397 -2624
2019-06-18 07:57:03 GMT 50.065861 2.078940 25,625 188 384 -2560
2019-06-18 07:56:58 GMT 50.076336 2.081315 22,275 189 393 -2688
2019-06-18 07:56:55 GMT 50.080479 2.082206 22,450 189 391 -2624
2019-06-18 07:56:52 GMT 50.085846 2.083427 22,975 189 391 -2560
2019-06-18 07:56:48 GMT 50.093903 2.085162 22,825 188 388 -1472
2019-06-18 07:56:44 GMT 50.101181 2.086752 22,975 188 388 -1472
2019-06-18 07:56:40 GMT 50.112900 2.089282 23,775 194 377 -1280
2019-06-18 07:56:37 GMT 50.112900 2.089282 23,025 188 388 -1600
2019-06-18 07:56:32 GMT 50.130112 2.093040 23,300 188 386 -2304
2019-06-18 07:56:28 GMT 50.130112 2.093040 25,225 188 377 -1152
2019-06-18 07:56:25 GMT 50.133640 2.093786 23,400 188 385 -2496
2019-06-18 07:56:22 GMT 50.141052 2.095353 23,600 188 384 -2560
2019-06-18 07:56:17 GMT 50.150864 2.097498 24,025 188 377 -2688
2019-06-18 07:56:13 GMT 50.154694 2.098316 24,275 188 377 -2624
2019-06-18 07:56:10 GMT 50.160271 2.099502 24,775 190 377 -1152
2019-06-18 07:56:06 GMT 50.167511 2.101063 24,350 188 375 -1408
2019-06-18 07:56:00 GMT 50.178005 2.103362 24,525 188 377 -1152
2019-06-18 07:55:56 GMT 50.185406 2.104847 24,550 188 376 -1152
2019-06-18 07:55:50 GMT 50.194519 2.106701 24,550 188 376 -1152
2019-06-18 07:55:44 GMT 50.205551 2.109014 24,800 188 377 -1152
2019-06-18 07:55:41 GMT 50.210407 2.109969 24,800 194 377 -1280
2019-06-18 07:55:38 GMT 50.215248 2.111082 24,825 189 377 -1152
2019-06-18 07:55:33 GMT 50.231216 2.115314 25,000 194 377 -1280
2019-06-18 07:55:29 GMT 50.231216 2.115314 25,000 192 378 -1280
2019-06-18 07:55:24 GMT 50.242107 2.119322 25,150 196 377 -1344
2019-06-18 07:55:21 GMT 50.249268 2.122674 25,250 201 376 -1280
2019-06-18 07:55:18 GMT 50.258121 2.127636 25,475 202 377 -1216
2019-06-18 07:55:14 GMT 50.258121 2.127636 25,500 202 377 -1216
2019-06-18 07:55:10 GMT 50.264099 2.131275 25,425 202 377 -1216
2019-06-18 07:55:06 GMT 50.268951 2.134239 25,475 202 378 -1280
2019-06-18 07:55:02 GMT 50.276276 2.138771 25,675 202 377 -1280
2019-06-18 07:54:59 GMT 50.281120 2.141740 25,725 202 377 -1280
2019-06-18 07:54:53 GMT 50.292152 2.148569 25,800 202 378 -1024
2019-06-18 07:54:50 GMT 50.297058 2.151513 25,850 202 378 -1088
2019-06-18 07:54:47 GMT 50.300125 2.153465 25,850 202 378 -960
2019-06-18 07:54:40 GMT 50.313007 2.161337 26,000 202 379 -64
2019-06-18 07:54:36 GMT 50.318573 2.164668 26,000 201 379 0
2019-06-18 07:54:29 GMT 50.330978 2.172185 26,000 201 380 0
2019-06-18 07:54:26 GMT 50.334412 2.174281 26,000 192 381 0
2019-06-18 07:54:23 GMT 50.338516 2.176703 26,000 201 379 0
2019-06-18 07:54:18 GMT 50.349197 2.182954 26,000 182 385 0
2019-06-18 07:54:14 GMT 50.354252 2.185908 26,000 201 378 0
2019-06-18 07:54:10 GMT 50.361328 2.190065 26,000 196 380 0
2019-06-18 07:54:07 GMT 50.371078 2.195242 26,000 199 379 0
2019-06-18 07:54:04 GMT 50.371078 2.195242 26,000 196 380 0
2019-06-18 07:53:59 GMT 50.379089 2.198494 26,000 191 382 0
2019-06-18 07:53:55 GMT 50.388607 2.201200 26,000 190 382 -64
2019-06-18 07:53:52 GMT 50.391953 2.201819 26,000 187 383 0
2019-06-18 07:53:49 GMT 50.396893 2.202536 26,000 182 385 0
2019-06-18 07:53:46 GMT 50.402760 2.202907 26,000 179 386 0
2019-06-18 07:53:42 GMT 50.408298 2.202907 26,000 175 388 0
2019-06-18 07:53:39 GMT 50.415070 2.202253 26,000 168 391 0
2019-06-18 07:53:36 GMT 50.419518 2.201571 26,000 170 390 0
2019-06-18 07:53:32 GMT 50.428574 2.199289 26,000 168 391 0
2019-06-18 07:53:27 GMT 50.436695 2.196301 26,000 166 391 0
2019-06-18 07:53:24 GMT 50.440838 2.194371 26,000 164 393 0
2019-06-18 07:53:21 GMT 50.446381 2.191411 26,000 107 424 0
2019-06-18 07:53:14 GMT 50.459972 2.182122 26,000 152 398 0
2019-06-18 07:53:08 GMT 50.466751 2.176233 26,000 117 418 0
2019-06-18 07:53:04 GMT 50.473572 2.169294 26,000 141 403 0
2019-06-18 07:53:00 GMT 50.479572 2.162377 26,000 140 404 0
2019-06-18 07:52:57 GMT 50.484283 2.156139 26,000 124 413 0
2019-06-18 07:52:54 GMT 50.495087 2.139298 26,000 133 408 0
2019-06-18 07:52:49 GMT 50.495087 2.139298 26,000 130 410 0
2019-06-18 07:52:44 GMT 50.501778 2.126374 26,000 124 413 0
2019-06-18 07:52:39 GMT 50.506153 2.116575 26,000 118 417 0
2019-06-18 07:52:35 GMT 50.511692 2.101729 26,000 119 416 0
2019-06-18 07:52:32 GMT 50.513901 2.094630 26,000 78 442 0
2019-06-18 07:52:27 GMT 50.516647 2.084873 26,000 102 428 0
2019-06-18 07:52:21 GMT 50.520676 2.067657 26,000 67 446 0
2019-06-18 07:52:18 GMT 50.523235 2.054369 26,000 102 428 0
2019-06-18 07:52:14 GMT 50.524658 2.045336 26,000 95 432 0
2019-06-18 07:52:11 GMT 50.525612 2.038112 26,000 100 429 0
2019-06-18 07:52:07 GMT 50.527084 2.022713 26,000 94 432 0
2019-06-18 07:52:01 GMT 50.527863 2.006378 26,000 92 434 0
2019-06-18 07:51:56 GMT 50.527817 1.989031 26,000 66 448 0
2019-06-18 07:51:50 GMT 50.526810 1.970673 26,000 83 440 0
2019-06-18 07:51:45 GMT 50.525051 1.954230 26,000 76 443 0
2019-06-18 07:51:40 GMT 50.522587 1.938642 26,000 73 444 0
2019-06-18 07:51:37 GMT 50.521004 1.930328 26,000 70 445 0
2019-06-18 07:51:34 GMT 50.518906 1.921197 26,000 68 446 0
2019-06-18 07:51:29 GMT 50.515182 1.907212 26,000 58 449 -64
2019-06-18 07:51:26 GMT 50.510761 1.893583 26,000 58 449 -64
2019-06-18 07:51:21 GMT 50.506664 1.882596 26,000 55 450 0
2019-06-18 07:51:18 GMT 50.502754 1.873392 26,000 55 450 0
2019-06-18 07:51:15 GMT 50.492844 1.854015 26,000 50 451 64
2019-06-18 07:51:10 GMT 50.492844 1.854015 26,000 44 452 64
2019-06-18 07:51:06 GMT 50.486881 1.844441 26,000 37 454 0
2019-06-18 07:51:03 GMT 50.482178 1.837909 26,000 32 454 0
2019-06-18 07:51:00 GMT 50.471748 1.825809 26,000 30 453 -64
2019-06-18 07:50:56 GMT 50.471748 1.825809 26,000 18 451 0
2019-06-18 07:50:50 GMT 50.459473 1.815057 26,000 25 453 0
2019-06-18 07:50:47 GMT 50.454945 1.811631 26,000 19 452 0
2019-06-18 07:50:44 GMT 50.447662 1.806600 26,000 19 452 0
2019-06-18 07:50:38 GMT 50.436558 1.799976 26,000 18 452 0
2019-06-18 07:50:35 GMT 50.432007 1.797638 26,000 12 449 0
2019-06-18 07:50:32 GMT 50.424778 1.794409 26,000 14 449 0
2019-06-18 07:50:28 GMT 50.416718 1.791277 26,000 10 448 0
2019-06-18 07:50:25 GMT 50.411045 1.789435 26,000 10 448 0
2019-06-18 07:50:21 GMT 50.402664 1.787230 26,000 349 432 -64
2019-06-18 07:50:18 GMT 50.395309 1.785798 26,000 3 445 0
2019-06-18 07:50:14 GMT 50.381607 1.784483 26,000 359 441 0
2019-06-18 07:50:08 GMT 50.373230 1.784411 26,000 351 434 -64
2019-06-18 07:50:01 GMT 50.362072 1.785353 26,000 326 424 0
2019-06-18 07:49:56 GMT 50.351669 1.787230 26,000 352 434 -64
2019-06-18 07:49:51 GMT 50.342789 1.789615 26,000 348 430 -64
2019-06-18 07:49:48 GMT 50.333862 1.792702 26,000 344 425 0
2019-06-18 07:49:45 GMT 50.328140 1.795180 26,000 327 409 0
2019-06-18 07:49:37 GMT 50.314865 1.802191 26,000 335 411 64
2019-06-18 07:49:34 GMT 50.307541 1.806817 26,000 327 409 0
2019-06-18 07:49:30 GMT 50.303238 1.809925 26,000 335 411 64
2019-06-18 07:49:26 GMT 50.294479 1.816975 26,000 331 407 64
2019-06-18 07:49:23 GMT 50.289406 1.821504 26,000 331 407 64
2019-06-18 07:49:19 GMT 50.285076 1.825586 26,000 327 408 0
2019-06-18 07:49:16 GMT 50.279068 1.831681 26,000 327 409 0
2019-06-18 07:49:13 GMT 50.274216 1.836885 26,000 326 420 -64
2019-06-18 07:49:08 GMT 50.267570 1.843922 26,000 326 445 1344
2019-06-18 07:49:03 GMT 50.258148 1.853943 26,025 326 427 192
2019-06-18 07:48:58 GMT 50.250393 1.862183 26,025 326 429 384
2019-06-18 07:48:55 GMT 50.245693 1.867230 26,000 326 428 256
2019-06-18 07:48:52 GMT 50.242249 1.870942 25,975 326 429 320
2019-06-18 07:48:49 GMT 50.236847 1.876806 25,675 326 438 832
2019-06-18 07:48:46 GMT 50.230049 1.884155 25,900 324 472 1216
2019-06-18 07:48:43 GMT 50.225372 1.889215 25,850 325 450 1600
2019-06-18 07:48:36 GMT 50.209717 1.906345 25,300 325 468 3008
2019-06-18 07:48:33 GMT 50.209717 1.906345 25,275 325 470 2944
2019-06-18 07:48:30 GMT 50.199280 1.917909 25,475 325 470 2752
2019-06-18 07:48:27 GMT 50.199280 1.917909 25,350 325 465 2368
2019-06-18 07:48:23 GMT 50.187920 1.930624 25,125 324 469 1024
2019-06-18 07:48:20 GMT 50.178425 1.941388 24,850 325 470 2752
2019-06-18 07:48:16 GMT 50.178425 1.941388 24,850 324 472 2112
2019-06-18 07:48:10 GMT 50.169765 1.951187 24,675 324 472 1280
2019-06-18 07:48:07 GMT 50.164318 1.957348 24,675 324 471 1152
2019-06-18 07:48:03 GMT 50.156250 1.966625 24,550 324 470 1024
2019-06-18 07:48:00 GMT 50.150635 1.973011 24,525 324 469 1024
2019-06-18 07:47:57 GMT 50.147141 1.977033 24,475 324 468 1088
2019-06-18 07:47:52 GMT 50.137737 1.987857 24,400 324 468 1216
2019-06-18 07:47:49 GMT 50.133408 1.992831 24,300 324 467 1408
2019-06-18 07:47:46 GMT 50.127823 1.999141 24,250 325 467 1536
2019-06-18 07:47:43 GMT 50.123611 2.003848 24,200 325 467 1536
2019-06-18 07:47:40 GMT 50.116974 2.011315 24,100 325 467 1536
2019-06-18 07:47:36 GMT 50.110458 2.018589 24,000 325 466 1536
2019-06-18 07:47:32 GMT 50.101707 2.028314 23,875 325 466 1536
2019-06-18 07:47:29 GMT 50.095734 2.034928 23,775 325 466 1536
2019-06-18 07:47:26 GMT 50.093307 2.037602 23,725 325 465 1472
2019-06-18 07:47:23 GMT 50.082779 2.049312 23,625 325 465 1472
2019-06-18 07:47:15 GMT 50.073029 2.060159 23,525 325 457 1216
2019-06-18 07:47:11 GMT 50.064835 2.069260 23,400 325 463 1216
2019-06-18 07:47:07 GMT 50.058380 2.076488 23,350 325 462 1152
2019-06-18 07:47:04 GMT 50.054581 2.080753 23,275 325 460 1216
2019-06-18 07:46:58 GMT 50.044510 2.091956 23,175 325 460 1152
2019-06-18 07:46:55 GMT 50.038303 2.098834 23,075 325 457 1280
2019-06-18 07:46:49 GMT 50.028488 2.109809 22,975 325 458 1280
2019-06-18 07:46:43 GMT 50.012001 2.128156 22,850 325 456 1216
2019-06-18 07:46:40 GMT 50.012001 2.128156 22,775 325 455 1216
2019-06-18 07:46:36 GMT 49.999557 2.142117 22,625 325 454 1344
2019-06-18 07:46:28 GMT 49.993099 2.149386 22,550 324 453 1344
2019-06-18 07:46:25 GMT 49.987003 2.156215 22,450 324 452 1216
2019-06-18 07:46:18 GMT 49.974701 2.170161 22,325 324 450 1024
2019-06-18 07:46:13 GMT 49.965683 2.180497 22,225 324 446 1024
2019-06-18 07:46:08 GMT 49.947758 2.201051 22,050 325 444 1152
2019-06-18 07:46:01 GMT 49.947758 2.201051 22,050 325 444 1152
2019-06-18 07:45:56 GMT 49.930813 2.219387 21,925 326 443 1088
2019-06-18 07:45:51 GMT 49.930813 2.219387 21,775 333 440 1216
2019-06-18 07:45:47 GMT 49.911392 2.237525 20,350 333 430 1536
2019-06-18 07:45:40 GMT 49.911392 2.237525 21,650 333 441 1216
2019-06-18 07:45:36 GMT 49.904709 2.242946 21,475 334 438 1472
2019-06-18 07:45:33 GMT 49.896736 2.249228 21,475 333 440 1280
2019-06-18 07:45:25 GMT 49.884979 2.258558 21,325 334 438 1472
2019-06-18 07:45:18 GMT 49.872532 2.268306 21,150 334 437 1536
2019-06-18 07:45:15 GMT 49.866440 2.273086 21,075 333 433 1600
2019-06-18 07:45:11 GMT 49.858517 2.279366 20,950 334 435 1536
2019-06-18 07:45:06 GMT 49.850605 2.285527 20,775 334 435 1600
2019-06-18 07:45:01 GMT 49.841858 2.292456 20,675 334 434 1600
2019-06-18 07:44:55 GMT 49.830261 2.301562 20,550 333 433 1600
2019-06-18 07:44:51 GMT 49.822578 2.307649 20,150 333 432 1600
2019-06-18 07:44:47 GMT 49.815811 2.312983 20,200 333 431 1600
2019-06-18 07:44:44 GMT 49.810474 2.317150 20,250 333 431 1536
2019-06-18 07:44:39 GMT 49.800018 2.325415 20,075 333 430 1536
2019-06-18 07:44:36 GMT 49.794205 2.330041 20,025 333 430 1600
2019-06-18 07:44:33 GMT 49.789948 2.333407 19,950 333 428 1600
2019-06-18 07:44:29 GMT 49.782211 2.339582 19,825 333 428 1792
2019-06-18 07:44:25 GMT 49.776913 2.343725 19,550 333 428 1856
2019-06-18 07:44:16 GMT 49.753307 2.362283 19,325 334 427 1856
2019-06-18 07:44:06 GMT 49.739250 2.373344 19,100 334 426 1856
2019-06-18 07:44:03 GMT 49.739250 2.373344 19,000 334 427 2112
2019-06-18 07:43:59 GMT 49.731152 2.379654 18,875 334 427 2176
2019-06-18 07:43:53 GMT 49.719933 2.388413 18,525 334 426 2048
2019-06-18 07:43:47 GMT 49.703339 2.401235 18,475 334 427 1984
2019-06-18 07:43:43 GMT 49.703339 2.401235 18,250 335 423 1920
2019-06-18 07:43:40 GMT 49.697353 2.405857 18,250 334 426 1792
2019-06-18 07:43:32 GMT 49.683609 2.416414 17,900 335 424 1856
2019-06-18 07:43:29 GMT 49.678482 2.420245 17,975 334 425 1792
2019-06-18 07:43:22 GMT 49.666122 2.429496 17,675 335 424 1920
2019-06-18 07:43:10 GMT 49.644882 2.444892 17,325 336 422 1856
2019-06-18 07:43:05 GMT 49.633671 2.452624 17,075 337 421 1856
2019-06-18 07:43:00 GMT 49.626526 2.457396 17,075 338 421 2112
2019-06-18 07:42:53 GMT 49.614864 2.464946 16,775 338 421 2368
2019-06-18 07:42:50 GMT 49.609085 2.468599 15,975 341 417 2240
2019-06-18 07:42:47 GMT 49.603867 2.471852 16,450 340 419 1856
2019-06-18 07:42:44 GMT 49.596451 2.476405 16,375 339 421 2112
2019-06-18 07:42:39 GMT 49.590134 2.480308 16,250 339 421 2048
2019-06-18 07:42:31 GMT 49.575027 2.489271 15,975 340 401 1856
2019-06-18 07:42:28 GMT 49.568665 2.492885 15,850 340 419 1856
2019-06-18 07:42:24 GMT 49.561569 2.496932 15,675 341 418 2048
2019-06-18 07:42:21 GMT 49.555573 2.500257 15,625 341 418 2112
2019-06-18 07:42:18 GMT 49.551727 2.502353 15,575 341 417 2176
2019-06-18 07:42:15 GMT 49.543945 2.506690 15,400 341 417 2240
2019-06-18 07:42:08 GMT 49.533417 2.512544 15,175 341 416 2240
2019-06-18 07:42:02 GMT 49.511147 2.524925 14,875 340 415 1920
2019-06-18 07:41:57 GMT 49.497665 2.532493 14,725 340 415 1920
2019-06-18 07:41:49 GMT 49.497665 2.532493 14,600 340 412 1728
2019-06-18 07:41:46 GMT 49.493732 2.534650 14,475 340 412 1728
2019-06-18 07:41:38 GMT 49.479816 2.542518 14,300 340 409 1472
2019-06-18 07:41:34 GMT 49.469948 2.548086 13,800 340 402 1792
2019-06-18 07:41:29 GMT 49.462219 2.552540 14,025 340 402 1664
2019-06-18 07:41:25 GMT 49.455963 2.556128 13,925 340 401 1792
2019-06-18 07:41:19 GMT 49.444519 2.562706 13,700 340 398 1728
2019-06-18 07:41:14 GMT 49.437267 2.566941 13,600 340 396 1664
2019-06-18 07:41:08 GMT 49.424976 2.574053 13,375 340 394 1792
2019-06-18 07:41:04 GMT 49.420368 2.576728 13,200 340 392 1792
2019-06-18 07:40:56 GMT 49.403732 2.586083 13,000 341 389 2112
2019-06-18 07:40:52 GMT 49.399700 2.588364 12,925 341 388 2176
2019-06-18 07:40:48 GMT 49.391098 2.593126 12,725 340 387 2240
2019-06-18 07:40:45 GMT 49.386898 2.595520 12,600 340 386 2304
2019-06-18 07:40:42 GMT 49.382538 2.597914 12,600 340 386 2304
2019-06-18 07:40:37 GMT 49.373154 2.603196 12,325 340 385 2304
2019-06-18 07:40:33 GMT 49.367981 2.606084 12,175 340 384 2176
2019-06-18 07:40:30 GMT 49.352680 2.614746 11,875 340 380 1728
2019-06-18 07:40:25 GMT 49.348026 2.617348 11,875 340 381 1856
2019-06-18 07:40:22 GMT 49.348026 2.617348 11,825 340 380 1664
2019-06-18 07:40:19 GMT 49.344582 2.619300 11,775 340 378 1472
2019-06-18 07:40:15 GMT 49.335571 2.624394 11,650 340 376 1152
2019-06-18 07:40:12 GMT 49.333282 2.625662 11,575 340 371 1024
2019-06-18 07:40:09 GMT 49.328426 2.628407 11,575 340 371 1024
2019-06-18 07:40:06 GMT 49.323578 2.631155 11,500 341 367 896
2019-06-18 07:40:03 GMT 49.318634 2.633902 11,475 341 364 1024
2019-06-18 07:39:59 GMT 49.311340 2.637875 11,400 341 361 1152
2019-06-18 07:39:54 GMT 49.302429 2.642846 11,300 341 357 1280
2019-06-18 07:39:51 GMT 49.298538 2.644958 11,225 340 354 1088
2019-06-18 07:39:47 GMT 49.293777 2.647635 11,200 340 349 960
2019-06-18 07:39:44 GMT 49.289509 2.650090 11,150 340 350 1024
2019-06-18 07:39:41 GMT 49.284531 2.652917 11,050 340 344 640
2019-06-18 07:39:38 GMT 49.279732 2.655656 11,025 340 340 576
2019-06-18 07:39:35 GMT 49.275169 2.658258 11,025 340 338 640
2019-06-18 07:39:30 GMT 49.268600 2.662072 10,975 340 332 512
2019-06-18 07:39:27 GMT 49.263840 2.664818 10,950 340 329 704
2019-06-18 07:39:22 GMT 49.256737 2.668883 10,900 340 320 512
2019-06-18 07:39:18 GMT 49.250591 2.672424 10,725 340 319 640
2019-06-18 07:39:14 GMT 49.246029 2.674954 10,825 340 315 768
2019-06-18 07:39:11 GMT 49.241562 2.677484 10,775 340 311 704
2019-06-18 07:39:07 GMT 49.236008 2.680523 10,725 340 303 704
2019-06-18 07:39:03 GMT 49.231506 2.683049 10,700 340 303 768
2019-06-18 07:39:00 GMT 49.227585 2.685242 10,650 340 299 832
2019-06-18 07:38:57 GMT 49.223171 2.687675 10,600 340 297 960
2019-06-18 07:38:53 GMT 49.217285 2.690946 10,500 341 292 1408
2019-06-18 07:38:50 GMT 49.212845 2.693411 10,400 341 291 1664
2019-06-18 07:38:46 GMT 49.203827 2.698482 10,275 340 287 1984
2019-06-18 07:38:43 GMT 49.203827 2.698482 10,200 340 287 2112
2019-06-18 07:38:40 GMT 49.200211 2.700524 10,050 340 286 2368
2019-06-18 07:38:36 GMT 49.195862 2.702989 9,575 340 286 2176
2019-06-18 07:38:33 GMT 49.192867 2.704661 9,750 340 286 2560
2019-06-18 07:38:30 GMT 49.189407 2.706581 9,525 340 285 2048
2019-06-18 07:38:27 GMT 49.185791 2.708623 9,575 340 286 2240
2019-06-18 07:38:23 GMT 49.179089 2.712394 9,400 340 284 1792
2019-06-18 07:38:20 GMT 49.176636 2.713764 9,350 340 281 1792
2019-06-18 07:38:17 GMT 49.172432 2.716153 9,250 340 281 1856
2019-06-18 07:38:12 GMT 49.167114 2.719187 9,100 339 279 2944
2019-06-18 07:38:09 GMT 49.163727 2.721140 8,975 339 279 2688
2019-06-18 07:38:06 GMT 49.159012 2.723976 8,775 338 281 3072
2019-06-18 07:38:02 GMT 49.151340 2.728802 8,550 338 281 2880
2019-06-18 07:37:59 GMT 49.151340 2.728802 8,450 337 282 2560
2019-06-18 07:37:53 GMT 49.143494 2.734187 8,225 335 280 1920
2019-06-18 07:37:48 GMT 49.138588 2.737764 8,100 334 279 1792
2019-06-18 07:37:43 GMT 49.132416 2.742638 7,875 332 274 1792
2019-06-18 07:37:40 GMT 49.129211 2.745314 7,875 332 274 1792
2019-06-18 07:37:37 GMT 49.126007 2.748131 7,750 330 272 2240
2019-06-18 07:37:34 GMT 49.122253 2.751582 7,600 328 271 2944
2019-06-18 07:37:31 GMT 49.118851 2.754822 7,350 327 272 3712
2019-06-18 07:37:28 GMT 49.115356 2.758291 7,225 327 274 3968
2019-06-18 07:37:23 GMT 49.111359 2.762287 6,975 327 276 4032
2019-06-18 07:37:19 GMT 49.106735 2.767005 6,700 327 279 3392
2019-06-18 07:37:16 GMT 49.103485 2.770217 6,550 328 281 3072
2019-06-18 07:37:09 GMT 49.092220 2.779758 6,100 336 281 2880
2019-06-18 07:37:01 GMT 49.085098 2.783516 5,800 347 282 2944
2019-06-18 07:36:58 GMT 49.081512 2.784673 5,650 352 283 2816
2019-06-18 07:36:52 GMT 49.072903 2.785612 5,375 4 283 2624
2019-06-18 07:36:46 GMT 49.066338 2.784673 5,150 11 283 2432
2019-06-18 07:36:41 GMT 49.060146 2.782360 4,950 18 282 2176
2019-06-18 07:36:38 GMT 49.056931 2.780597 4,600 28 278 1728
2019-06-18 07:36:34 GMT 49.052513 2.777373 4,775 28 278 1728
2019-06-18 07:36:30 GMT 49.048183 2.773253 4,675 43 270 960
2019-06-18 07:36:26 GMT 49.044159 2.768062 4,600 45 268 896
2019-06-18 07:36:23 GMT 49.040779 2.762628 4,550 54 261 1024
2019-06-18 07:36:20 GMT 49.037567 2.755526 4,475 60 257 1152
2019-06-18 07:36:17 GMT 49.037567 2.755526 4,075 61 255 1152
2019-06-18 07:36:14 GMT 49.035847 2.750413 4,325 68 250 1664
2019-06-18 07:36:11 GMT 49.033192 2.738198 4,225 73 248 1792
2019-06-18 07:36:07 GMT 49.033192 2.738198 4,175 78 246 1472
2019-06-18 07:36:04 GMT 49.032669 2.734117 4,100 83 240 640
2019-06-18 07:36:01 GMT 49.031708 2.720806 4,075 85 226 0
2019-06-18 07:35:57 GMT 49.031708 2.720806 4,075 84 199 1280
2019-06-18 07:35:54 GMT 49.031517 2.717020 4,075 85 220 128
2019-06-18 07:35:48 GMT 49.031006 2.708202 3,950 84 201 960
2019-06-18 07:35:44 GMT 49.030586 2.701408 4,025 85 206 768
2019-06-18 07:35:41 GMT 49.030426 2.697918 3,975 84 204 896
2019-06-18 07:35:37 GMT 49.030060 2.692073 3,925 84 200 1088
2019-06-18 07:35:34 GMT 49.029739 2.686580 3,825 84 196 1472
2019-06-18 07:35:28 GMT 49.029144 2.677412 3,625 84 194 1856
2019-06-18 07:35:23 GMT 49.028824 2.672213 3,500 84 194 1984
2019-06-18 07:35:20 GMT 49.028595 2.668269 3,350 84 193 1984
2019-06-18 07:35:16 GMT 49.028259 2.662811 3,225 84 193 1984
2019-06-18 07:35:13 GMT 49.028000 2.657776 3,225 84 193 1984
2019-06-18 07:35:09 GMT 49.027725 2.653339 3,000 85 192 1984
2019-06-18 07:35:06 GMT 49.027420 2.647922 2,925 85 192 1984
2019-06-18 07:35:02 GMT 49.027187 2.643730 2,800 84 192 1984
2019-06-18 07:34:59 GMT 49.026947 2.639395 2,700 84 190 1792
2019-06-18 07:34:54 GMT 49.026535 2.632599 2,550 84 190 1728
2019-06-18 07:34:51 GMT 49.026398 2.629925 2,500 84 190 1728
2019-06-18 07:34:48 GMT 49.026123 2.625380 2,375 86 186 2240
2019-06-18 07:34:44 GMT 49.025757 2.618760 2,225 85 187 2048
2019-06-18 07:34:41 GMT 49.025574 2.615591 2,150 85 187 2112
2019-06-18 07:34:37 GMT 49.025391 2.611295 2,025 86 187 2240
2019-06-18 07:34:33 GMT 49.025070 2.604182 1,825 86 185 2304
2019-06-18 07:34:26 GMT 49.024796 2.596929 1,600 87 184 2560
2019-06-18 07:34:21 GMT 49.024532 2.589882 1,375 86 184 2688
2019-06-18 07:34:14 GMT 49.024208 2.581353 1,225 85 184 2496

Making use of Plane Finder data

You are free to use the raw flight data, aircraft information and images provided in this report for your own purposes provided the data is correctly attributed to Plane Finder. We ask that you please credit Plane Finder and link to planefinder.net in close proximity to the content.

Optionally one of the following logos (no smaller then 150x24px) can be used and must link to planefinder.net

Embedding the Plane Finder map

You are welcome to embed the Plane Finder playback map on your website to offer visitors a more interactive experience. We suggest using the following HTML code:

<iframe src="//planefinder.net/data/report/UA984-N216UA-7700-squawk-2019-06-18/map" width="800" height="600" seamless="seamless"></iframe>

Where our data comes from

Plane Finder has a global network of data feeds and antenna radars that receive data broadcast directly from aircraft. The primary technologies used are ADS-B and MLAT. We also show feeds from the FAA and a FLARM glider feed.

Click here to find out more about the Plane Finder network.

How we collect our data